Wetterdaten: Freitag, 20.11.2020
Datum Zeit Temp. Aussen Temp. o. S. Temp +5cm Feuchte Auss Luftdruck Regen Sonnenschein Regendauer Solar Windben Empfang
20.11.2020 00:00 4,7 C 4,4 C 3,9 C 95 % 1032,2 hPa 0,0 l/m 0 min 0 min 0 W/m 3,2 km/h (1 Bft) 97,87 %
20.11.2020 00:02 4,7 C 4,4 C 3,9 C 95 % 1032,3 hPa 0,0 l/m 0 min 0 min 0 W/m 0,0 km/h (0 Bft) 95,00 %
20.11.2020 00:04 4,7 C 4,4 C 3,9 C 95 % 1032,2 hPa 0,0 l/m 0 min 0 min 0 W/m 0,0 km/h (0 Bft) 100,00 %
20.11.2020 00:08 4,8 C 4,4 C 3,9 C 95 % 1032,4 hPa 0,0 l/m 0 min 0 min 0 W/m 3,2 km/h (1 Bft) 94,68 %
20.11.2020 00:10 4,7 C 4,4 C 3,9 C 94 % 1032,4 hPa 0,0 l/m 0 min 0 min 0 W/m 12,9 km/h (3 Bft) 95,65 %
20.11.2020 00:12 4,8 C 4,4 C 3,9 C 94 % 1032,3 hPa 0,0 l/m 0 min 0 min 0 W/m 3,2 km/h (1 Bft) 95,74 %
20.11.2020 00:14 4,8 C 4,4 C 3,9 C 94 % 1032,3 hPa 0,0 l/m 0 min 0 min 0 W/m 3,2 km/h (1 Bft) 95,74 %
20.11.2020 00:16 4,8 C 4,4 C 3,9 C 94 % 1032,3 hPa 0,0 l/m 0 min 0 min 0 W/m 3,2 km/h (1 Bft) 95,74 %
20.11.2020 00:18 4,8 C 4,4 C 3,9 C 94 % 1032,3 hPa 0,0 l/m 0 min 0 min 0 W/m 6,4 km/h (2 Bft) 95,74 %
20.11.2020 00:20 4,8 C 4,4 C 3,9 C 94 % 1032,4 hPa 0,0 l/m 0 min 0 min 0 W/m 0,0 km/h (0 Bft) 93,62 %
20.11.2020 00:22 4,8 C 4,4 C 3,9 C 94 % 1032,4 hPa 0,0 l/m 0 min 0 min 0 W/m 3,2 km/h (1 Bft) 95,65 %
20.11.2020 00:24 4,8 C 4,4 C 3,9 C 94 % 1032,5 hPa 0,0 l/m 0 min 0 min 0 W/m 3,2 km/h (1 Bft) 91,49 %
20.11.2020 00:26 4,8 C 4,4 C 3,9 C 94 % 1032,5 hPa 0,0 l/m 0 min 0 min 0 W/m 3,2 km/h (1 Bft) 95,74 %
20.11.2020 00:28 4,8 C 4,4 C 3,9 C 94 % 1032,6 hPa 0,0 l/m 0 min 0 min 0 W/m 3,2 km/h (1 Bft) 95,74 %
20.11.2020 00:30 4,8 C 4,4 C 3,9 C 94 % 1032,6 hPa 0,0 l/m 0 min 0 min 0 W/m 0,0 km/h (0 Bft) 95,74 %
20.11.2020 00:32 4,8 C 4,4 C 3,9 C 94 % 1032,6 hPa 0,0 l/m 0 min 0 min 0 W/m 3,2 km/h (1 Bft) 91,49 %
20.11.2020 00:34 4,8 C 4,4 C 3,9 C 94 % 1032,6 hPa 0,0 l/m 0 min 0 min 0 W/m 3,2 km/h (1 Bft) 95,74 %
20.11.2020 00:36 4,8 C 4,4 C 3,9 C 94 % 1032,6 hPa 0,0 l/m 0 min 0 min 0 W/m 6,4 km/h (2 Bft) 95,74 %
20.11.2020 00:38 4,8 C 4,4 C 3,9 C 94 % 1032,7 hPa 0,0 l/m 0 min 0 min 0 W/m 3,2 km/h (1 Bft) 95,74 %
20.11.2020 00:40 4,8 C 4,4 C 3,9 C 94 % 1032,7 hPa 0,0 l/m 0 min 0 min 0 W/m 6,4 km/h (2 Bft) 97,87 %
20.11.2020 00:42 4,9 C 4,4 C 3,9 C 94 % 1032,7 hPa 0,0 l/m 0 min 0 min 0 W/m 6,4 km/h (2 Bft) 97,87 %
20.11.2020 00:44 4,8 C 4,4 C 3,9 C 94 % 1032,7 hPa 0,0 l/m 0 min 0 min 0 W/m 9,7 km/h (2 Bft) 100,00 %
20.11.2020 00:46 4,9 C 4,4 C 3,9 C 94 % 1032,6 hPa 0,0 l/m 0 min 0 min 0 W/m 0,0 km/h (0 Bft) 97,87 %
20.11.2020 00:48 4,9 C 4,4 C 3,9 C 94 % 1032,6 hPa 0,0 l/m 0 min 0 min 0 W/m 3,2 km/h (1 Bft) 97,87 %
20.11.2020 00:50 4,9 C 4,4 C 3,9 C 94 % 1032,6 hPa 0,0 l/m 0 min 0 min 0 W/m 0,0 km/h (0 Bft) 97,87 %
20.11.2020 00:52 4,9 C 4,4 C 3,9 C 94 % 1032,6 hPa 0,0 l/m 0 min 0 min 0 W/m 0,0 km/h (0 Bft) 97,87 %
20.11.2020 00:54 4,9 C 4,4 C 3,9 C 94 % 1032,6 hPa 0,0 l/m 0 min 0 min 0 W/m 0,0 km/h (0 Bft) 97,87 %
20.11.2020 00:56 4,9 C 4,4 C 3,9 C 94 % 1032,6 hPa 0,0 l/m 0 min 0 min 0 W/m 0,0 km/h (0 Bft) 100,00 %
20.11.2020 00:58 4,9 C 4,4 C 3,9 C 94 % 1032,5 hPa 0,0 l/m 0 min 0 min 0 W/m 0,0 km/h (0 Bft) 100,00 %
20.11.2020 01:00 4,9 C 3,9 C 3,4 C 94 % 1032,5 hPa 0,0 l/m 0 min 0 min 0 W/m 0,0 km/h (0 Bft) 100,00 %
20.11.2020 01:02 4,8 C 3,9 C 3,4 C 94 % 1032,5 hPa 0,0 l/m 0 min 0 min 0 W/m 0,0 km/h (0 Bft) 100,00 %
20.11.2020 01:04 4,8 C 3,9 C 3,4 C 94 % 1032,5 hPa 0,0 l/m 0 min 0 min 0 W/m 0,0 km/h (0 Bft) 100,00 %
20.11.2020 01:06 4,8 C 3,9 C 3,4 C 94 % 1032,6 hPa 0,0 l/m 0 min 0 min 0 W/m 0,0 km/h (0 Bft) 100,00 %
20.11.2020 01:08 4,8 C 3,9 C 3,4 C 94 % 1032,6 hPa 0,0 l/m 0 min 0 min 0 W/m 0,0 km/h (0 Bft) 97,83 %
20.11.2020 01:10 4,8 C 3,9 C 3,4 C 94 % 1032,7 hPa 0,0 l/m 0 min 0 min 0 W/m 0,0 km/h (0 Bft) 100,00 %
20.11.2020 01:12 4,8 C 3,9 C 3,4 C 94 % 1032,7 hPa 0,0 l/m 0 min 0 min 0 W/m 0,0 km/h (0 Bft) 100,00 %
20.11.2020 01:14 4,8 C 3,9 C 3,4 C 93 % 1032,7 hPa 0,0 l/m 0 min 0 min 0 W/m 0,0 km/h (0 Bft) 100,00 %
20.11.2020 01:16 4,8 C 3,9 C 3,4 C 93 % 1032,7 hPa 0,0 l/m 0 min 0 min 0 W/m 3,2 km/h (1 Bft) 100,00 %
20.11.2020 01:18 4,8 C 3,9 C 3,4 C 93 % 1032,6 hPa 0,0 l/m 0 min 0 min 0 W/m 0,0 km/h (0 Bft) 100,00 %
20.11.2020 01:20 4,7 C 3,9 C 3,4 C 93 % 1032,7 hPa 0,0 l/m 0 min 0 min 0 W/m 6,4 km/h (2 Bft) 100,00 %
20.11.2020 01:22 4,7 C 3,9 C 3,4 C 93 % 1032,6 hPa 0,0 l/m 0 min 0 min 0 W/m 0,0 km/h (0 Bft) 97,87 %
20.11.2020 01:24 4,7 C 3,9 C 3,4 C 93 % 1032,6 hPa 0,0 l/m 0 min 0 min 0 W/m 0,0 km/h (0 Bft) 100,00 %
20.11.2020 01:26 4,7 C 3,9 C 3,4 C 93 % 1032,7 hPa 0,0 l/m 0 min 0 min 0 W/m 0,0 km/h (0 Bft) 100,00 %
20.11.2020 01:28 4,7 C 3,9 C 3,4 C 93 % 1032,8 hPa 0,0 l/m 0 min 0 min 0 W/m 0,0 km/h (0 Bft) 100,00 %
20.11.2020 01:30 4,7 C 3,9 C 3,4 C 93 % 1032,8 hPa 0,0 l/m 0 min 0 min 0 W/m 0,0 km/h (0 Bft) 100,00 %
20.11.2020 01:32 4,6 C 3,9 C 3,4 C 93 % 1032,8 hPa 0,0 l/m 0 min 0 min 0 W/m 0,0 km/h (0 Bft) 100,00 %
20.11.2020 01:34 4,6 C 3,9 C 3,4 C 93 % 1032,8 hPa 0,0 l/m 0 min 0 min 0 W/m 3,2 km/h (1 Bft) 100,00 %
20.11.2020 01:36 4,6 C 3,9 C 3,4 C 93 % 1032,7 hPa 0,0 l/m 0 min 0 min 0 W/m 0,0 km/h (0 Bft) 100,00 %
20.11.2020 01:38 4,6 C 3,9 C 3,9 C 93 % 1032,7 hPa 0,0 l/m 0 min 0 min 0 W/m 3,2 km/h (1 Bft) 100,00 %
20.11.2020 01:40 4,6 C 3,9 C 3,9 C 93 % 1032,8 hPa 0,0 l/m 0 min 0 min 0 W/m 3,2 km/h (1 Bft) 100,00 %
20.11.2020 01:42 4,6 C 3,9 C 3,4 C 93 % 1032,8 hPa 0,0 l/m 0 min 0 min 0 W/m 3,2 km/h (1 Bft) 97,83 %
20.11.2020 01:44 4,6 C 3,9 C 3,4 C 93 % 1032,7 hPa 0,0 l/m 0 min 0 min 0 W/m 0,0 km/h (0 Bft) 97,87 %
20.11.2020 01:46 4,6 C 3,9 C 3,4 C 93 % 1032,7 hPa 0,0 l/m 0 min 0 min 0 W/m 0,0 km/h (0 Bft) 97,87 %
20.11.2020 01:48 4,6 C 3,9 C 3,4 C 93 % 1032,7 hPa 0,0 l/m 0 min 0 min 0 W/m 0,0 km/h (0 Bft) 97,87 %
20.11.2020 01:50 4,6 C 3,9 C 3,4 C 93 % 1032,7 hPa 0,0 l/m 0 min 0 min 0 W/m 0,0 km/h (0 Bft) 95,74 %
20.11.2020 01:52 4,5 C 3,9 C 3,4 C 93 % 1032,7 hPa 0,0 l/m 0 min 0 min 0 W/m 0,0 km/h (0 Bft) 97,87 %
20.11.2020 01:54 4,5 C 3,9 C 3,4 C 93 % 1032,7 hPa 0,0 l/m 0 min 0 min 0 W/m 3,2 km/h (1 Bft) 97,83 %
20.11.2020 01:56 4,5 C 3,9 C 3,4 C 93 % 1032,7 hPa 0,0 l/m 0 min 0 min 0 W/m 0,0 km/h (0 Bft) 97,87 %
20.11.2020 01:58 4,5 C 3,9 C 3,4 C 93 % 1032,7 hPa 0,0 l/m 0 min 0 min 0 W/m 6,4 km/h (2 Bft) 97,87 %
20.11.2020 02:00 4,5 C 3,9 C 3,4 C 93 % 1032,7 hPa 0,0 l/m 0 min 0 min 0 W/m 0,0 km/h (0 Bft) 97,87 %
20.11.2020 02:02 4,5 C 3,9 C 3,4 C 93 % 1032,6 hPa 0,0 l/m 0 min 0 min 0 W/m 3,2 km/h (1 Bft) 97,87 %
20.11.2020 02:04 4,4 C 3,9 C 3,4 C 93 % 1032,6 hPa 0,0 l/m 0 min 0 min 0 W/m 0,0 km/h (0 Bft) 97,87 %
20.11.2020 02:06 4,4 C 3,9 C 3,4 C 93 % 1032,6 hPa 0,0 l/m 0 min 0 min 0 W/m 3,2 km/h (1 Bft) 95,65 %
20.11.2020 02:08 4,4 C 3,3 C 3,4 C 93 % 1032,6 hPa 0,0 l/m 0 min 0 min 0 W/m 0,0 km/h (0 Bft) 97,87 %
20.11.2020 02:10 4,4 C 3,9 C 3,4 C 93 % 1032,5 hPa 0,0 l/m 0 min 0 min 0 W/m 3,2 km/h (1 Bft) 97,87 %
20.11.2020 02:12 4,4 C 3,3 C 3,4 C 93 % 1032,5 hPa 0,0 l/m 0 min 0 min 0 W/m 0,0 km/h (0 Bft) 97,87 %
20.11.2020 02:14 4,4 C 3,3 C 3,4 C 93 % 1032,5 hPa 0,0 l/m 0 min 0 min 0 W/m 0,0 km/h (0 Bft) 100,00 %
20.11.2020 02:16 4,3 C 3,3 C 3,4 C 93 % 1032,5 hPa 0,0 l/m 0 min 0 min 0 W/m 0,0 km/h (0 Bft) 95,65 %
20.11.2020 02:18 4,3 C 3,3 C 3,4 C 93 % 1032,5 hPa 0,0 l/m 0 min 0 min 0 W/m 0,0 km/h (0 Bft) 95,74 %
20.11.2020 02:20 4,3 C 3,3 C 3,4 C 93 % 1032,5 hPa 0,0 l/m 0 min 0 min 0 W/m 0,0 km/h (0 Bft) 95,74 %
20.11.2020 02:22 4,3 C 3,3 C 3,4 C 93 % 1032,6 hPa 0,0 l/m 0 min 0 min 0 W/m 0,0 km/h (0 Bft) 95,74 %
20.11.2020 02:24 4,3 C 3,3 C 3,4 C 93 % 1032,6 hPa 0,0 l/m 0 min 0 min 0 W/m 0,0 km/h (0 Bft) 95,74 %
20.11.2020 02:26 4,3 C 3,3 C 3,4 C 93 % 1032,6 hPa 0,0 l/m 0 min 0 min 0 W/m 0,0 km/h (0 Bft) 95,74 %
20.11.2020 02:28 4,3 C 3,3 C 3,4 C 93 % 1032,5 hPa 0,0 l/m 0 min 0 min 0 W/m 0,0 km/h (0 Bft) 95,65 %
20.11.2020 02:30 4,3 C 3,3 C 3,4 C 93 % 1032,5 hPa 0,0 l/m 0 min 0 min 0 W/m 0,0 km/h (0 Bft) 95,74 %
20.11.2020 02:32 4,3 C 3,3 C 3,4 C 93 % 1032,5 hPa 0,0 l/m 0 min 0 min 0 W/m 0,0 km/h (0 Bft) 93,62 %
20.11.2020 02:34 4,2 C 3,3 C 3,4 C 93 % 1032,4 hPa 0,0 l/m 0 min 0 min 0 W/m 0,0 km/h (0 Bft) 95,74 %
20.11.2020 02:36 4,2 C 3,3 C 3,4 C 93 % 1032,4 hPa 0,0 l/m 0 min 0 min 0 W/m 0,0 km/h (0 Bft) 95,74 %
20.11.2020 02:38 4,2 C 3,3 C 3,4 C 93 % 1032,5 hPa 0,0 l/m 0 min 0 min 0 W/m 0,0 km/h (0 Bft) 95,74 %
20.11.2020 02:40 4,2 C 3,3 C 3,4 C 93 % 1032,5 hPa 0,0 l/m 0 min 0 min 0 W/m 0,0 km/h (0 Bft) 95,65 %
20.11.2020 02:42 4,2 C 3,3 C 2,8 C 93 % 1032,5 hPa 0,0 l/m 0 min 0 min 0 W/m 3,2 km/h (1 Bft) 95,74 %
20.11.2020 02:44 4,1 C 3,3 C 2,8 C 93 % 1032,5 hPa 0,0 l/m 0 min 0 min 0 W/m 0,0 km/h (0 Bft) 95,74 %
20.11.2020 02:46 4,1 C 3,3 C 2,8 C 93 % 1032,5 hPa 0,0 l/m 0 min 0 min 0 W/m 0,0 km/h (0 Bft) 93,62 %
20.11.2020 02:48 4,1 C 3,3 C 2,8 C 93 % 1032,5 hPa 0,0 l/m 0 min 0 min 0 W/m 0,0 km/h (0 Bft) 95,74 %
20.11.2020 02:50 4,1 C 3,3 C 2,8 C 93 % 1032,5 hPa 0,0 l/m 0 min 0 min 0 W/m 0,0 km/h (0 Bft) 95,74 %
20.11.2020 02:52 4,1 C 3,3 C 2,8 C 93 % 1032,6 hPa 0,0 l/m 0 min 0 min 0 W/m 3,2 km/h (1 Bft) 93,48 %
20.11.2020 02:54 4,1 C 3,3 C 2,8 C 93 % 1032,5 hPa 0,0 l/m 0 min 0 min 0 W/m 0,0 km/h (0 Bft) 95,74 %
20.11.2020 02:56 4,1 C 3,3 C 2,8 C 93 % 1032,5 hPa 0,0 l/m 0 min 0 min 0 W/m 0,0 km/h (0 Bft) 93,62 %
20.11.2020 02:58 4,1 C 3,3 C 2,8 C 93 % 1032,5 hPa 0,0 l/m 0 min 0 min 0 W/m 0,0 km/h (0 Bft) 95,74 %
20.11.2020 03:00 4,0 C 3,3 C 2,8 C 93 % 1032,5 hPa 0,0 l/m 0 min 0 min 0 W/m 3,2 km/h (1 Bft) 80,85 %
20.11.2020 03:02 4,0 C 3,3 C 2,8 C 93 % 1032,6 hPa 0,0 l/m 0 min 0 min 0 W/m 0,0 km/h (0 Bft) 66,67 %
20.11.2020 03:04 4,0 C 3,3 C 2,8 C 94 % 1032,6 hPa 0,0 l/m 0 min 0 min 0 W/m 3,2 km/h (1 Bft) 95,65 %
20.11.2020 03:06 4,0 C 3,3 C 2,8 C 94 % 1032,7 hPa 0,0 l/m 0 min 0 min 0 W/m 3,2 km/h (1 Bft) 97,87 %
20.11.2020 03:08 4,0 C 3,3 C 3,4 C 94 % 1032,7 hPa 0,0 l/m 0 min 0 min 0 W/m 0,0 km/h (0 Bft) 97,87 %
20.11.2020 03:10 4,0 C 3,3 C 3,4 C 94 % 1032,7 hPa 0,0 l/m 0 min 0 min 0 W/m 3,2 km/h (1 Bft) 97,87 %
20.11.2020 03:12 4,0 C 3,3 C 3,4 C 93 % 1032,6 hPa 0,0 l/m 0 min 0 min 0 W/m 0,0 km/h (0 Bft) 95,74 %
20.11.2020 03:14 4,0 C 3,3 C 3,4 C 93 % 1032,6 hPa 0,0 l/m 0 min 0 min 0 W/m 0,0 km/h (0 Bft) 93,48 %
20.11.2020 03:16 4,0 C 3,3 C 3,4 C 94 % 1032,6 hPa 0,0 l/m 0 min 0 min 0 W/m 0,0 km/h (0 Bft) 97,87 %
20.11.2020 03:18 4,0 C 3,3 C 3,4 C 94 % 1032,7 hPa 0,0 l/m 0 min 0 min 0 W/m 0,0 km/h (0 Bft) 97,87 %
20.11.2020 03:20 4,0 C 3,3 C 3,4 C 94 % 1032,7 hPa 0,0 l/m 0 min 0 min 0 W/m 0,0 km/h (0 Bft) 97,87 %
20.11.2020 03:22 4,0 C 3,3 C 3,4 C 94 % 1032,8 hPa 0,0 l/m 0 min 0 min 0 W/m 0,0 km/h (0 Bft) 95,74 %
20.11.2020 03:24 4,0 C 3,3 C 3,4 C 94 % 1032,8 hPa 0,0 l/m 0 min 0 min 0 W/m 3,2 km/h (1 Bft) 97,87 %
20.11.2020 03:26 4,0 C 3,3 C 3,4 C 94 % 1032,8 hPa 0,0 l/m 0 min 0 min 0 W/m 0,0 km/h (0 Bft) 97,83 %
20.11.2020 03:28 4,0 C 3,9 C 3,4 C 94 % 1032,8 hPa 0,0 l/m 0 min 0 min 0 W/m 3,2 km/h (1 Bft) 97,87 %
20.11.2020 03:30 4,0 C 3,9 C 3,4 C 94 % 1032,8 hPa 0,0 l/m 0 min 0 min 0 W/m 0,0 km/h (0 Bft) 95,74 %
20.11.2020 03:32 4,0 C 3,3 C 3,4 C 94 % 1032,8 hPa 0,0 l/m 0 min 0 min 0 W/m 0,0 km/h (0 Bft) 93,62 %
20.11.2020 03:34 4,0 C 3,3 C 3,4 C 94 % 1032,8 hPa 0,0 l/m 0 min 0 min 0 W/m 0,0 km/h (0 Bft) 97,87 %
20.11.2020 03:36 4,0 C 3,3 C 3,4 C 94 % 1032,8 hPa 0,0 l/m 0 min 0 min 0 W/m 0,0 km/h (0 Bft) 97,87 %
20.11.2020 03:38 4,0 C 3,3 C 3,4 C 94 % 1032,8 hPa 0,0 l/m 0 min 0 min 0 W/m 3,2 km/h (1 Bft) 97,83 %
20.11.2020 03:40 4,0 C 3,9 C 3,4 C 94 % 1032,8 hPa 0,0 l/m 0 min 0 min 0 W/m 0,0 km/h (0 Bft) 95,74 %
20.11.2020 03:42 4,0 C 3,9 C 3,4 C 94 % 1032,8 hPa 0,0 l/m 0 min 0 min 0 W/m 0,0 km/h (0 Bft) 95,74 %
20.11.2020 03:44 4,0 C 3,9 C 3,4 C 94 % 1032,8 hPa 0,0 l/m 0 min 0 min 0 W/m 0,0 km/h (0 Bft) 97,87 %
20.11.2020 03:46 4,1 C 3,9 C 3,4 C 94 % 1032,8 hPa 0,0 l/m 0 min 0 min 0 W/m 3,2 km/h (1 Bft) 97,87 %
20.11.2020 03:48 4,1 C 3,9 C 3,4 C 94 % 1032,8 hPa 0,0 l/m 0 min 0 min 0 W/m 0,0 km/h (0 Bft) 95,74 %
20.11.2020 03:50 4,1 C 3,9 C 3,4 C 94 % 1032,7 hPa 0,0 l/m 0 min 0 min 0 W/m 3,2 km/h (1 Bft) 97,83 %
20.11.2020 03:52 4,1 C 3,9 C 3,4 C 94 % 1032,8 hPa 0,0 l/m 0 min 0 min 0 W/m 3,2 km/h (1 Bft) 97,87 %
20.11.2020 03:54 4,1 C 3,9 C 3,4 C 94 % 1032,8 hPa 0,0 l/m 0 min 0 min 0 W/m 6,4 km/h (2 Bft) 95,74 %
20.11.2020 03:56 4,1 C 3,9 C 3,4 C 94 % 1032,8 hPa 0,0 l/m 0 min 0 min 0 W/m 3,2 km/h (1 Bft) 100,00 %
20.11.2020 03:58 4,1 C 3,9 C 3,4 C 94 % 1032,8 hPa 0,0 l/m 0 min 0 min 0 W/m 0,0 km/h (0 Bft) 100,00 %
20.11.2020 04:00 4,1 C 3,9 C 3,4 C 94 % 1032,8 hPa 0,0 l/m 0 min 0 min 0 W/m 3,2 km/h (1 Bft) 100,00 %
20.11.2020 04:02 4,2 C 3,9 C 3,4 C 94 % 1032,9 hPa 0,0 l/m 0 min 0 min 0 W/m 3,2 km/h (1 Bft) 100,00 %
20.11.2020 04:05 4,2 C 3,9 C 3,4 C 94 % 1032,9 hPa 0,0 l/m 0 min 0 min 0 W/m 0,0 km/h (0 Bft) 100,00 %
20.11.2020 04:06 4,2 C 3,9 C 3,9 C 94 % 1032,9 hPa 0,0 l/m 0 min 0 min 0 W/m 0,0 km/h (0 Bft) 100,00 %
20.11.2020 04:08 4,2 C 3,9 C 3,4 C 94 % 1032,9 hPa 0,0 l/m 0 min 0 min 0 W/m 0,0 km/h (0 Bft) 100,00 %
20.11.2020 04:11 4,3 C 3,9 C 3,4 C 94 % 1032,8 hPa 0,0 l/m 0 min 0 min 0 W/m 0,0 km/h (0 Bft) 100,00 %
20.11.2020 04:12 4,3 C 3,9 C 3,4 C 94 % 1032,8 hPa 0,0 l/m 0 min 0 min 0 W/m 3,2 km/h (1 Bft) 100,00 %
20.11.2020 04:16 4,3 C 3,9 C 3,4 C 94 % 1032,7 hPa 0,0 l/m 0 min 0 min 0 W/m 0,0 km/h (0 Bft) 100,00 %
20.11.2020 04:18 4,3 C 3,9 C 3,4 C 94 % 1032,8 hPa 0,0 l/m 0 min 0 min 0 W/m 3,2 km/h (1 Bft) 100,00 %
20.11.2020 04:20 4,3 C 3,9 C 3,4 C 94 % 1032,8 hPa 0,0 l/m 0 min 0 min 0 W/m 0,0 km/h (0 Bft) 97,87 %
20.11.2020 04:22 4,3 C 3,9 C 3,9 C 94 % 1032,7 hPa 0,0 l/m 0 min 0 min 0 W/m 3,2 km/h (1 Bft) 100,00 %
20.11.2020 04:24 4,3 C 3,9 C 3,9 C 95 % 1032,7 hPa 0,0 l/m 0 min 0 min 0 W/m 3,2 km/h (1 Bft) 100,00 %
20.11.2020 04:26 4,3 C 3,9 C 3,9 C 94 % 1032,8 hPa 0,0 l/m 0 min 0 min 0 W/m 6,4 km/h (2 Bft) 100,00 %
20.11.2020 04:28 4,3 C 3,9 C 3,9 C 94 % 1032,7 hPa 0,0 l/m 0 min 0 min 0 W/m 3,2 km/h (1 Bft) 97,67 %
20.11.2020 04:30 4,3 C 3,9 C 3,9 C 95 % 1032,7 hPa 0,0 l/m 0 min 0 min 0 W/m 3,2 km/h (1 Bft) 100,00 %
20.11.2020 04:32 4,4 C 3,9 C 3,9 C 95 % 1032,7 hPa 0,0 l/m 0 min 0 min 0 W/m 0,0 km/h (0 Bft) 100,00 %
20.11.2020 04:34 4,4 C 3,9 C 3,9 C 95 % 1032,7 hPa 0,0 l/m 0 min 0 min 0 W/m 3,2 km/h (1 Bft) 100,00 %
20.11.2020 04:36 4,4 C 3,9 C 3,9 C 95 % 1032,7 hPa 0,0 l/m 0 min 0 min 0 W/m 3,2 km/h (1 Bft) 100,00 %
20.11.2020 04:38 4,4 C 3,9 C 3,9 C 95 % 1032,7 hPa 0,0 l/m 0 min 0 min 0 W/m 0,0 km/h (0 Bft) 100,00 %
20.11.2020 04:40 4,4 C 3,9 C 3,9 C 95 % 1032,7 hPa 0,0 l/m 0 min 0 min 0 W/m 3,2 km/h (1 Bft) 100,00 %
20.11.2020 04:42 4,4 C 3,9 C 3,9 C 95 % 1032,7 hPa 0,0 l/m 0 min 0 min 0 W/m 0,0 km/h (0 Bft) 97,87 %
20.11.2020 04:44 4,4 C 3,9 C 3,9 C 95 % 1032,6 hPa 0,0 l/m 0 min 0 min 0 W/m 0,0 km/h (0 Bft) 100,00 %
20.11.2020 04:46 4,4 C 3,9 C 3,9 C 95 % 1032,6 hPa 0,0 l/m 0 min 0 min 0 W/m 0,0 km/h (0 Bft) 95,74 %
20.11.2020 04:48 4,4 C 3,9 C 3,9 C 95 % 1032,6 hPa 0,0 l/m 0 min 0 min 0 W/m 0,0 km/h (0 Bft) 100,00 %
20.11.2020 04:50 4,5 C 4,4 C 3,9 C 95 % 1032,7 hPa 0,0 l/m 0 min 0 min 0 W/m 0,0 km/h (0 Bft) 97,67 %
20.11.2020 04:52 4,5 C 4,4 C 3,9 C 95 % 1032,7 hPa 0,0 l/m 0 min 0 min 0 W/m 3,2 km/h (1 Bft) 97,87 %
20.11.2020 04:54 4,5 C 4,4 C 3,9 C 95 % 1032,7 hPa 0,0 l/m 0 min 0 min 0 W/m 0,0 km/h (0 Bft) 97,87 %
20.11.2020 04:56 4,5 C 3,9 C 3,9 C 95 % 1032,8 hPa 0,0 l/m 0 min 0 min 0 W/m 3,2 km/h (1 Bft) 95,92 %
20.11.2020 04:58 4,5 C 3,9 C 3,9 C 95 % 1032,8 hPa 0,0 l/m 0 min 0 min 0 W/m 0,0 km/h (0 Bft) 97,87 %
20.11.2020 05:00 4,5 C 3,9 C 3,9 C 94 % 1032,9 hPa 0,0 l/m 0 min 0 min 0 W/m 3,2 km/h (1 Bft) 97,92 %
20.11.2020 05:02 4,5 C 3,9 C 3,4 C 94 % 1032,9 hPa 0,0 l/m 0 min 0 min 0 W/m 0,0 km/h (0 Bft) 95,74 %
20.11.2020 05:04 4,5 C 3,9 C 3,4 C 95 % 1032,9 hPa 0,0 l/m 0 min 0 min 0 W/m 6,4 km/h (2 Bft) 95,74 %
20.11.2020 05:06 4,5 C 3,9 C 3,4 C 94 % 1032,9 hPa 0,0 l/m 0 min 0 min 0 W/m 3,2 km/h (1 Bft) 51,16 %
20.11.2020 05:08 4,5 C 3,9 C 3,4 C 94 % 1032,9 hPa 0,0 l/m 0 min 0 min 0 W/m 6,4 km/h (2 Bft) 95,74 %
20.11.2020 05:10 4,5 C 3,9 C 3,4 C 94 % 1032,8 hPa 0,0 l/m 0 min 0 min 0 W/m 6,4 km/h (2 Bft) 97,62 %
20.11.2020 05:12 4,4 C 3,9 C 3,4 C 94 % 1032,9 hPa 0,0 l/m 0 min 0 min 0 W/m 3,2 km/h (1 Bft) 98,00 %
20.11.2020 05:14 4,4 C 3,9 C 3,4 C 94 % 1032,8 hPa 0,0 l/m 0 min 0 min 0 W/m 3,2 km/h (1 Bft) 97,87 %
20.11.2020 05:16 4,4 C 3,9 C 3,4 C 94 % 1032,8 hPa 0,0 l/m 0 min 0 min 0 W/m 0,0 km/h (0 Bft) 97,92 %
20.11.2020 05:18 4,4 C 3,9 C 3,4 C 94 % 1032,8 hPa 0,0 l/m 0 min 0 min 0 W/m 3,2 km/h (1 Bft) 95,74 %
20.11.2020 05:20 4,4 C 3,9 C 3,4 C 94 % 1032,8 hPa 0,0 l/m 0 min 0 min 0 W/m 6,4 km/h (2 Bft) 95,24 %
20.11.2020 05:22 4,4 C 3,3 C 3,4 C 94 % 1032,8 hPa 0,0 l/m 0 min 0 min 0 W/m 0,0 km/h (0 Bft) 98,00 %
20.11.2020 05:24 4,4 C 3,3 C 3,4 C 94 % 1032,8 hPa 0,0 l/m 0 min 0 min 0 W/m 0,0 km/h (0 Bft) 97,92 %
20.11.2020 05:26 4,4 C 3,3 C 3,4 C 94 % 1032,8 hPa 0,0 l/m 0 min 0 min 0 W/m 0,0 km/h (0 Bft) 97,87 %
20.11.2020 05:28 4,3 C 3,3 C 2,8 C 94 % 1032,8 hPa 0,0 l/m 0 min 0 min 0 W/m 0,0 km/h (0 Bft) 97,87 %
20.11.2020 05:30 4,3 C 3,3 C 2,8 C 94 % 1032,8 hPa 0,0 l/m 0 min 0 min 0 W/m 3,2 km/h (1 Bft) 97,87 %
20.11.2020 05:32 4,3 C 3,3 C 2,8 C 94 % 1032,8 hPa 0,0 l/m 0 min 0 min 0 W/m 0,0 km/h (0 Bft) 100,00 %
20.11.2020 05:34 4,3 C 3,3 C 2,8 C 94 % 1032,8 hPa 0,0 l/m 0 min 0 min 0 W/m 0,0 km/h (0 Bft) 100,00 %
20.11.2020 05:36 4,3 C 3,3 C 2,8 C 94 % 1032,8 hPa 0,0 l/m 0 min 0 min 0 W/m 0,0 km/h (0 Bft) 100,00 %
20.11.2020 05:38 4,3 C 3,3 C 2,8 C 94 % 1032,8 hPa 0,0 l/m 0 min 0 min 0 W/m 0,0 km/h (0 Bft) 100,00 %
20.11.2020 05:40 4,2 C 3,3 C 2,8 C 94 % 1032,8 hPa 0,0 l/m 0 min 0 min 0 W/m 0,0 km/h (0 Bft) 100,00 %
20.11.2020 05:42 4,2 C 3,3 C 2,8 C 94 % 1032,8 hPa 0,0 l/m 0 min 0 min 0 W/m 0,0 km/h (0 Bft) 100,00 %
20.11.2020 05:44 4,2 C 3,3 C 2,8 C 94 % 1032,8 hPa 0,0 l/m 0 min 0 min 0 W/m 0,0 km/h (0 Bft) 100,00 %
20.11.2020 05:46 4,1 C 3,3 C 2,8 C 94 % 1032,8 hPa 0,0 l/m 0 min 0 min 0 W/m 0,0 km/h (0 Bft) 100,00 %
20.11.2020 05:48 4,1 C 3,3 C 2,8 C 94 % 1032,8 hPa 0,0 l/m 0 min 0 min 0 W/m 0,0 km/h (0 Bft) 100,00 %
20.11.2020 05:50 4,1 C 3,3 C 2,8 C 94 % 1032,8 hPa 0,0 l/m 0 min 0 min 0 W/m 0,0 km/h (0 Bft) 100,00 %
20.11.2020 05:52 4,1 C 3,3 C 2,8 C 94 % 1032,8 hPa 0,0 l/m 0 min 0 min 0 W/m 0,0 km/h (0 Bft) 100,00 %
20.11.2020 05:54 4,1 C 3,3 C 2,8 C 94 % 1032,8 hPa 0,0 l/m 0 min 0 min 0 W/m 0,0 km/h (0 Bft) 100,00 %
20.11.2020 05:56 4,0 C 3,3 C 2,8 C 94 % 1032,9 hPa 0,0 l/m 0 min 0 min 0 W/m 0,0 km/h (0 Bft) 97,83 %
20.11.2020 05:58 4,0 C 3,3 C 2,8 C 94 % 1032,9 hPa 0,0 l/m 0 min 0 min 0 W/m 0,0 km/h (0 Bft) 100,00 %
20.11.2020 06:00 4,0 C 3,3 C 2,8 C 94 % 1032,9 hPa 0,0 l/m 0 min 0 min 0 W/m 0,0 km/h (0 Bft) 98,00 %
20.11.2020 06:02 4,0 C 3,3 C 2,8 C 94 % 1032,9 hPa 0,0 l/m 0 min 0 min 0 W/m 0,0 km/h (0 Bft) 97,92 %
20.11.2020 06:04 4,0 C 3,3 C 2,8 C 94 % 1032,8 hPa 0,0 l/m 0 min 0 min 0 W/m 0,0 km/h (0 Bft) 97,87 %
20.11.2020 06:08 4,0 C 3,3 C 2,8 C 94 % 1032,8 hPa 0,0 l/m 0 min 0 min 0 W/m 0,0 km/h (0 Bft) 96,63 %
20.11.2020 06:10 4,0 C 3,3 C 2,8 C 94 % 1032,8 hPa 0,0 l/m 0 min 0 min 0 W/m 0,0 km/h (0 Bft) 95,74 %
20.11.2020 06:12 3,9 C 3,3 C 2,8 C 94 % 1032,9 hPa 0,0 l/m 0 min 0 min 0 W/m 3,2 km/h (1 Bft) 97,87 %
20.11.2020 06:14 3,9 C 3,3 C 2,8 C 94 % 1032,9 hPa 0,0 l/m 0 min 0 min 0 W/m 3,2 km/h (1 Bft) 97,87 %
20.11.2020 06:16 3,9 C 3,3 C 2,8 C 94 % 1032,9 hPa 0,0 l/m 0 min 0 min 0 W/m 3,2 km/h (1 Bft) 95,74 %
20.11.2020 06:18 3,9 C 3,3 C 2,8 C 94 % 1032,9 hPa 0,0 l/m 0 min 0 min 0 W/m 0,0 km/h (0 Bft) 95,92 %
20.11.2020 06:20 3,9 C 3,3 C 2,8 C 94 % 1033,0 hPa 0,0 l/m 0 min 0 min 0 W/m 0,0 km/h (0 Bft) 97,92 %
20.11.2020 06:22 3,9 C 3,3 C 2,8 C 94 % 1033,1 hPa 0,0 l/m 0 min 0 min 0 W/m 0,0 km/h (0 Bft) 97,87 %
20.11.2020 06:24 4,0 C 3,3 C 3,4 C 94 % 1033,1 hPa 0,0 l/m 0 min 0 min 0 W/m 3,2 km/h (1 Bft) 95,74 %
20.11.2020 06:26 4,0 C 3,3 C 3,4 C 94 % 1033,1 hPa 0,0 l/m 0 min 0 min 0 W/m 0,0 km/h (0 Bft) 97,87 %
20.11.2020 06:28 4,0 C 3,3 C 3,4 C 95 % 1033,1 hPa 0,0 l/m 0 min 0 min 0 W/m 3,2 km/h (1 Bft) 97,62 %
20.11.2020 06:30 4,0 C 3,3 C 3,4 C 95 % 1033,1 hPa 0,0 l/m 0 min 0 min 0 W/m 3,2 km/h (1 Bft) 97,87 %
20.11.2020 06:32 4,0 C 3,3 C 3,4 C 94 % 1033,2 hPa 0,0 l/m 0 min 0 min 0 W/m 0,0 km/h (0 Bft) 98,00 %
20.11.2020 06:34 4,0 C 3,3 C 3,4 C 94 % 1033,2 hPa 0,0 l/m 0 min 0 min 0 W/m 3,2 km/h (1 Bft) 97,87 %
20.11.2020 06:36 4,0 C 3,3 C 3,4 C 95 % 1033,2 hPa 0,0 l/m 0 min 0 min 0 W/m 0,0 km/h (0 Bft) 95,74 %
20.11.2020 06:38 4,0 C 3,3 C 3,4 C 95 % 1033,2 hPa 0,0 l/m 0 min 0 min 0 W/m 3,2 km/h (1 Bft) 100,00 %
20.11.2020 06:40 4,0 C 3,3 C 3,4 C 95 % 1033,2 hPa 0,0 l/m 0 min 0 min 0 W/m 0,0 km/h (0 Bft) 97,87 %
20.11.2020 06:42 4,0 C 3,3 C 3,4 C 95 % 1033,2 hPa 0,0 l/m 0 min 0 min 0 W/m 0,0 km/h (0 Bft) 95,74 %
20.11.2020 06:44 4,0 C 3,3 C 3,4 C 95 % 1033,2 hPa 0,0 l/m 0 min 0 min 0 W/m 0,0 km/h (0 Bft) 97,62 %
20.11.2020 06:46 4,0 C 3,3 C 3,4 C 95 % 1033,3 hPa 0,0 l/m 0 min 0 min 0 W/m 3,2 km/h (1 Bft) 96,08 %
20.11.2020 06:48 4,0 C 3,3 C 3,4 C 95 % 1033,3 hPa 0,0 l/m 0 min 0 min 0 W/m 9,7 km/h (2 Bft) 97,87 %
20.11.2020 06:50 4,0 C 3,3 C 3,4 C 95 % 1033,3 hPa 0,0 l/m 0 min 0 min 0 W/m 3,2 km/h (1 Bft) 97,67 %
20.11.2020 06:52 4,0 C 3,9 C 3,4 C 95 % 1033,3 hPa 0,0 l/m 0 min 0 min 0 W/m 9,7 km/h (2 Bft) 95,92 %
20.11.2020 06:54 4,0 C 3,9 C 3,4 C 95 % 1033,3 hPa 0,0 l/m 0 min 0 min 0 W/m 6,4 km/h (2 Bft) 97,87 %
20.11.2020 06:56 4,1 C 3,9 C 3,4 C 95 % 1033,3 hPa 0,0 l/m 0 min 0 min 0 W/m 3,2 km/h (1 Bft) 97,87 %
20.11.2020 06:58 4,1 C 3,9 C 3,4 C 95 % 1033,3 hPa 0,0 l/m 0 min 0 min 0 W/m 0,0 km/h (0 Bft) 97,92 %
20.11.2020 07:00 4,1 C 3,9 C 3,4 C 95 % 1033,4 hPa 0,0 l/m 0 min 0 min 0 W/m 9,7 km/h (2 Bft) 95,74 %
20.11.2020 07:02 4,1 C 3,9 C 3,4 C 95 % 1033,4 hPa 0,0 l/m 0 min 0 min 0 W/m 6,4 km/h (2 Bft) 95,35 %
20.11.2020 07:04 4,1 C 3,9 C 3,4 C 95 % 1033,3 hPa 0,0 l/m 0 min 0 min 0 W/m 3,2 km/h (1 Bft) 97,96 %
20.11.2020 07:06 4,1 C 3,9 C 3,4 C 95 % 1033,3 hPa 0,0 l/m 0 min 0 min 0 W/m 0,0 km/h (0 Bft) 91,84 %
20.11.2020 07:08 4,1 C 3,9 C 3,4 C 95 % 1033,3 hPa 0,0 l/m 0 min 0 min 0 W/m 0,0 km/h (0 Bft) 59,09 %
20.11.2020 07:10 4,1 C 3,9 C 3,4 C 95 % 1033,3 hPa 0,0 l/m 0 min 0 min 0 W/m 0,0 km/h (0 Bft) 95,35 %
20.11.2020 07:12 4,1 C 3,9 C 3,4 C 95 % 1033,4 hPa 0,0 l/m 0 min 0 min 0 W/m 9,7 km/h (2 Bft) 94,00 %
20.11.2020 07:14 4,1 C 3,9 C 3,4 C 95 % 1033,4 hPa 0,0 l/m 0 min 0 min 0 W/m 0,0 km/h (0 Bft) 97,83 %
20.11.2020 07:16 4,2 C 3,9 C 3,4 C 95 % 1033,4 hPa 0,0 l/m 0 min 0 min 0 W/m 3,2 km/h (1 Bft) 97,96 %
20.11.2020 07:18 4,2 C 3,9 C 3,4 C 95 % 1033,4 hPa 0,0 l/m 0 min 0 min 0 W/m 0,0 km/h (0 Bft) 95,65 %
20.11.2020 07:20 4,2 C 3,9 C 3,4 C 95 % 1033,4 hPa 0,0 l/m 0 min 0 min 0 W/m 0,0 km/h (0 Bft) 95,35 %
20.11.2020 07:22 4,2 C 3,9 C 3,4 C 95 % 1033,4 hPa 0,0 l/m 0 min 0 min 0 W/m 0,0 km/h (0 Bft) 96,00 %
20.11.2020 07:24 4,2 C 3,9 C 3,4 C 96 % 1033,4 hPa 0,0 l/m 0 min 0 min 0 W/m 3,2 km/h (1 Bft) 95,74 %
20.11.2020 07:26 4,2 C 3,9 C 3,9 C 96 % 1033,4 hPa 0,0 l/m 0 min 0 min 0 W/m 3,2 km/h (1 Bft) 95,83 %
20.11.2020 07:28 4,3 C 3,9 C 3,9 C 96 % 1033,5 hPa 0,0 l/m 0 min 0 min 0 W/m 0,0 km/h (0 Bft) 95,74 %
20.11.2020 07:30 4,3 C 3,9 C 3,9 C 96 % 1033,5 hPa 0,0 l/m 0 min 0 min 0 W/m 0,0 km/h (0 Bft) 95,24 %
20.11.2020 07:32 4,3 C 3,9 C 3,9 C 95 % 1033,6 hPa 0,0 l/m 0 min 0 min 0 W/m 0,0 km/h (0 Bft) 96,00 %
20.11.2020 07:34 4,3 C 3,9 C 3,9 C 95 % 1033,6 hPa 0,0 l/m 0 min 0 min 0 W/m 0,0 km/h (0 Bft) 95,83 %
20.11.2020 07:36 4,3 C 3,9 C 3,9 C 96 % 1033,6 hPa 0,0 l/m 0 min 0 min 0 W/m 3,2 km/h (1 Bft) 95,74 %
20.11.2020 07:38 4,3 C 3,9 C 3,9 C 96 % 1033,6 hPa 0,0 l/m 0 min 0 min 0 W/m 0,0 km/h (0 Bft) 93,62 %
20.11.2020 07:40 4,3 C 3,9 C 3,9 C 96 % 1033,7 hPa 0,0 l/m 0 min 0 min 0 W/m 3,2 km/h (1 Bft) 93,62 %
20.11.2020 07:42 4,3 C 3,9 C 3,9 C 96 % 1033,7 hPa 0,0 l/m 0 min 0 min 0 W/m 6,4 km/h (2 Bft) 93,48 %
20.11.2020 07:44 4,3 C 3,9 C 3,9 C 96 % 1033,7 hPa 0,0 l/m 0 min 0 min 0 W/m 0,0 km/h (0 Bft) 93,62 %
20.11.2020 07:46 4,3 C 3,9 C 3,9 C 96 % 1033,7 hPa 0,0 l/m 0 min 0 min 0 W/m 3,2 km/h (1 Bft) 95,74 %
20.11.2020 07:48 4,3 C 3,9 C 3,9 C 96 % 1033,7 hPa 0,0 l/m 0 min 0 min 0 W/m 3,2 km/h (1 Bft) 94,00 %
20.11.2020 07:50 4,3 C 3,9 C 3,9 C 96 % 1033,7 hPa 0,0 l/m 0 min 0 min 0 W/m 3,2 km/h (1 Bft) 94,44 %
20.11.2020 07:52 4,3 C 3,9 C 3,9 C 96 % 1033,7 hPa 0,0 l/m 0 min 0 min 0 W/m 0,0 km/h (0 Bft) 94,44 %
20.11.2020 07:54 4,3 C 4,4 C 3,9 C 96 % 1033,7 hPa 0,0 l/m 0 min 0 min 0 W/m 3,2 km/h (1 Bft) 96,00 %
20.11.2020 07:56 4,4 C 3,9 C 3,9 C 96 % 1033,8 hPa 0,0 l/m 0 min 0 min 0 W/m 6,4 km/h (2 Bft) 96,00 %
20.11.2020 07:58 4,4 C 3,9 C 3,9 C 96 % 1033,9 hPa 0,0 l/m 0 min 0 min 0 W/m 0,0 km/h (0 Bft) 94,74 %
20.11.2020 08:00 4,4 C 3,9 C 3,9 C 96 % 1033,9 hPa 0,0 l/m 0 min 0 min 0 W/m 6,4 km/h (2 Bft) 95,92 %
20.11.2020 08:02 4,4 C 3,9 C 3,9 C 96 % 1034,0 hPa 0,0 l/m 0 min 0 min 0 W/m 3,2 km/h (1 Bft) 96,00 %
20.11.2020 08:04 4,4 C 3,9 C 3,9 C 96 % 1034,0 hPa 0,0 l/m 0 min 0 min 0 W/m 9,7 km/h (2 Bft) 100,00 %
20.11.2020 08:06 4,4 C 4,4 C 3,9 C 96 % 1034,0 hPa 0,0 l/m 0 min 0 min 0 W/m 6,4 km/h (2 Bft) 97,92 %
20.11.2020 08:08 4,4 C 3,9 C 3,9 C 96 % 1034,0 hPa 0,0 l/m 0 min 0 min 0 W/m 3,2 km/h (1 Bft) 97,92 %
20.11.2020 08:10 4,4 C 4,4 C 3,9 C 96 % 1034,0 hPa 0,0 l/m 0 min 0 min 0 W/m 6,4 km/h (2 Bft) 97,87 %
20.11.2020 08:12 4,4 C 4,4 C 3,9 C 96 % 1034,0 hPa 0,0 l/m 0 min 0 min 4 W/m 3,2 km/h (1 Bft) 100,00 %
20.11.2020 08:14 4,4 C 4,4 C 3,9 C 96 % 1034,0 hPa 0,0 l/m 0 min 0 min 5 W/m 3,2 km/h (1 Bft) 100,00 %
20.11.2020 08:16 4,4 C 4,4 C 3,9 C 96 % 1034,1 hPa 0,0 l/m 0 min 0 min 5 W/m 6,4 km/h (2 Bft) 100,00 %
20.11.2020 08:18 4,5 C 4,4 C 3,9 C 95 % 1034,1 hPa 0,0 l/m 0 min 0 min 5 W/m 3,2 km/h (1 Bft) 100,00 %
20.11.2020 08:20 4,5 C 4,4 C 3,9 C 95 % 1034,1 hPa 0,0 l/m 0 min 0 min 5 W/m 6,4 km/h (2 Bft) 100,00 %
20.11.2020 08:22 4,5 C 4,4 C 3,9 C 95 % 1034,1 hPa 0,0 l/m 0 min 0 min 5 W/m 3,2 km/h (1 Bft) 100,00 %
20.11.2020 08:24 4,5 C 4,4 C 3,9 C 95 % 1034,2 hPa 0,0 l/m 0 min 0 min 5 W/m 0,0 km/h (0 Bft) 100,00 %
20.11.2020 08:26 4,5 C 4,4 C 3,9 C 95 % 1034,2 hPa 0,0 l/m 0 min 0 min 6 W/m 0,0 km/h (0 Bft) 100,00 %
20.11.2020 08:28 4,5 C 4,4 C 3,9 C 95 % 1034,2 hPa 0,0 l/m 0 min 0 min 7 W/m 0,0 km/h (0 Bft) 100,00 %
20.11.2020 08:30 4,5 C 4,4 C 3,9 C 95 % 1034,3 hPa 0,0 l/m 0 min 0 min 7 W/m 0,0 km/h (0 Bft) 100,00 %
20.11.2020 08:32 4,5 C 4,4 C 3,9 C 95 % 1034,3 hPa 0,0 l/m 0 min 0 min 7 W/m 3,2 km/h (1 Bft) 100,00 %
20.11.2020 08:34 4,5 C 4,4 C 3,9 C 95 % 1034,3 hPa 0,0 l/m 0 min 0 min 9 W/m 0,0 km/h (0 Bft) 100,00 %
20.11.2020 08:36 4,5 C 4,4 C 3,9 C 95 % 1034,2 hPa 0,0 l/m 0 min 0 min 10 W/m 3,2 km/h (1 Bft) 100,00 %
20.11.2020 08:38 4,6 C 4,4 C 3,9 C 95 % 1034,2 hPa 0,0 l/m 0 min 0 min 11 W/m 0,0 km/h (0 Bft) 100,00 %
20.11.2020 08:40 4,6 C 4,4 C 3,9 C 95 % 1034,3 hPa 0,0 l/m 0 min 0 min 11 W/m 0,0 km/h (0 Bft) 100,00 %
20.11.2020 08:42 4,6 C 4,4 C 3,9 C 95 % 1034,3 hPa 0,0 l/m 0 min 0 min 11 W/m 0,0 km/h (0 Bft) 100,00 %
20.11.2020 08:44 4,6 C 4,4 C 3,9 C 95 % 1034,3 hPa 0,0 l/m 0 min 0 min 12 W/m 0,0 km/h (0 Bft) 97,92 %
20.11.2020 08:46 4,6 C 4,4 C 3,9 C 95 % 1034,3 hPa 0,0 l/m 0 min 0 min 13 W/m 0,0 km/h (0 Bft) 100,00 %
20.11.2020 08:48 4,6 C 4,4 C 3,9 C 95 % 1034,3 hPa 0,0 l/m 0 min 0 min 15 W/m 3,2 km/h (1 Bft) 100,00 %
20.11.2020 08:50 4,6 C 4,4 C 3,9 C 95 % 1034,3 hPa 0,0 l/m 0 min 0 min 18 W/m 0,0 km/h (0 Bft) 95,65 %
20.11.2020 08:52 4,6 C 4,4 C 3,9 C 95 % 1034,3 hPa 0,0 l/m 0 min 0 min 18 W/m 0,0 km/h (0 Bft) 96,00 %
20.11.2020 08:54 4,7 C 4,4 C 3,9 C 95 % 1034,3 hPa 0,0 l/m 0 min 0 min 19 W/m 0,0 km/h (0 Bft) 95,74 %
20.11.2020 08:56 4,7 C 4,4 C 3,9 C 95 % 1034,3 hPa 0,0 l/m 0 min 0 min 21 W/m 0,0 km/h (0 Bft) 98,00 %
20.11.2020 08:58 4,7 C 4,4 C 4,5 C 95 % 1034,3 hPa 0,0 l/m 0 min 0 min 22 W/m 0,0 km/h (0 Bft) 97,87 %
20.11.2020 09:00 4,7 C 4,4 C 4,5 C 95 % 1034,3 hPa 0,0 l/m 0 min 0 min 24 W/m 6,4 km/h (2 Bft) 97,37 %
20.11.2020 09:02 4,8 C 4,4 C 4,5 C 95 % 1034,3 hPa 0,0 l/m 0 min 0 min 26 W/m 0,0 km/h (0 Bft) 96,00 %
20.11.2020 09:04 4,8 C 4,4 C 4,5 C 95 % 1034,3 hPa 0,0 l/m 0 min 0 min 28 W/m 0,0 km/h (0 Bft) 98,00 %
20.11.2020 09:06 4,8 C 4,4 C 4,5 C 95 % 1034,3 hPa 0,0 l/m 0 min 0 min 28 W/m 0,0 km/h (0 Bft) 97,92 %
20.11.2020 09:08 4,8 C 4,4 C 4,5 C 95 % 1034,3 hPa 0,0 l/m 0 min 0 min 29 W/m 6,4 km/h (2 Bft) 95,74 %
20.11.2020 09:10 4,8 C 4,4 C 4,5 C 95 % 1034,4 hPa 0,0 l/m 0 min 0 min 30 W/m 3,2 km/h (1 Bft) 97,30 %
20.11.2020 09:12 4,8 C 4,4 C 4,5 C 95 % 1034,3 hPa 0,0 l/m 0 min 0 min 30 W/m 6,4 km/h (2 Bft) 98,15 %
20.11.2020 09:14 4,8 C 4,4 C 4,5 C 95 % 1034,3 hPa 0,0 l/m 0 min 0 min 32 W/m 6,4 km/h (2 Bft) 98,04 %
20.11.2020 09:16 4,8 C 5,0 C 4,5 C 95 % 1034,3 hPa 0,0 l/m 0 min 0 min 33 W/m 0,0 km/h (0 Bft) 97,30 %
20.11.2020 09:18 4,9 C 5,0 C 4,5 C 95 % 1034,3 hPa 0,0 l/m 0 min 0 min 35 W/m 3,2 km/h (1 Bft) 59,62 %
20.11.2020 09:20 4,9 C 5,0 C 4,5 C 95 % 1034,3 hPa 0,0 l/m 0 min 0 min 36 W/m 6,4 km/h (2 Bft) 97,92 %
20.11.2020 09:22 4,9 C 5,0 C 4,5 C 95 % 1034,3 hPa 0,0 l/m 0 min 0 min 39 W/m 6,4 km/h (2 Bft) 97,44 %
20.11.2020 09:24 4,9 C 5,0 C 4,5 C 95 % 1034,3 hPa 0,0 l/m 0 min 0 min 39 W/m 6,4 km/h (2 Bft) 97,87 %
20.11.2020 09:26 4,9 C 5,0 C 4,5 C 95 % 1034,4 hPa 0,0 l/m 0 min 0 min 40 W/m 6,4 km/h (2 Bft) 93,75 %
20.11.2020 09:28 4,9 C 5,0 C 4,5 C 95 % 1034,4 hPa 0,0 l/m 0 min 0 min 40 W/m 12,9 km/h (3 Bft) 97,92 %
20.11.2020 09:30 4,9 C 5,0 C 4,5 C 95 % 1034,4 hPa 0,0 l/m 0 min 0 min 40 W/m 3,2 km/h (1 Bft) 97,92 %
20.11.2020 09:32 4,9 C 5,0 C 4,5 C 95 % 1034,5 hPa 0,0 l/m 0 min 0 min 44 W/m 3,2 km/h (1 Bft) 97,78 %
20.11.2020 09:34 5,0 C 5,0 C 4,5 C 95 % 1034,4 hPa 0,0 l/m 0 min 0 min 48 W/m 3,2 km/h (1 Bft) 97,96 %
20.11.2020 09:36 5,0 C 5,0 C 4,5 C 95 % 1034,5 hPa 0,0 l/m 0 min 0 min 52 W/m 3,2 km/h (1 Bft) 95,83 %
20.11.2020 09:38 5,0 C 5,0 C 4,5 C 95 % 1034,4 hPa 0,0 l/m 0 min 0 min 54 W/m 6,4 km/h (2 Bft) 98,11 %
20.11.2020 09:40 5,0 C 5,0 C 4,5 C 95 % 1034,5 hPa 0,0 l/m 0 min 0 min 54 W/m 9,7 km/h (2 Bft) 100,00 %
20.11.2020 09:42 5,0 C 5,0 C 4,5 C 95 % 1034,5 hPa 0,0 l/m 0 min 0 min 54 W/m 3,2 km/h (1 Bft) 100,00 %
20.11.2020 09:44 5,0 C 5,0 C 4,5 C 95 % 1034,5 hPa 0,0 l/m 0 min 0 min 55 W/m 6,4 km/h (2 Bft) 97,92 %
20.11.2020 09:46 5,0 C 5,0 C 4,5 C 95 % 1034,5 hPa 0,0 l/m 0 min 0 min 57 W/m 3,2 km/h (1 Bft) 97,96 %
20.11.2020 09:48 5,1 C 5,0 C 5,0 C 95 % 1034,5 hPa 0,0 l/m 0 min 0 min 55 W/m 3,2 km/h (1 Bft) 97,30 %
20.11.2020 09:50 5,1 C 5,0 C 5,0 C 95 % 1034,6 hPa 0,0 l/m 0 min 0 min 53 W/m 6,4 km/h (2 Bft) 100,00 %
20.11.2020 09:52 5,1 C 5,0 C 5,0 C 95 % 1034,6 hPa 0,0 l/m 0 min 0 min 55 W/m 3,2 km/h (1 Bft) 97,96 %
20.11.2020 09:54 5,1 C 5,0 C 5,0 C 95 % 1034,7 hPa 0,0 l/m 0 min 0 min 54 W/m 6,4 km/h (2 Bft) 100,00 %
20.11.2020 09:56 5,1 C 5,0 C 5,0 C 95 % 1034,7 hPa 0,0 l/m 0 min 0 min 53 W/m 22,5 km/h (4 Bft) 97,50 %
20.11.2020 09:58 5,1 C 5,0 C 5,0 C 95 % 1034,6 hPa 0,0 l/m 0 min 0 min 53 W/m 6,4 km/h (2 Bft) 97,92 %
20.11.2020 10:00 5,2 C 5,0 C 5,0 C 95 % 1034,6 hPa 0,0 l/m 0 min 0 min 55 W/m 6,4 km/h (2 Bft) 97,92 %
20.11.2020 10:02 5,2 C 5,0 C 5,0 C 95 % 1034,6 hPa 0,0 l/m 0 min 0 min 60 W/m 6,4 km/h (2 Bft) 93,88 %
20.11.2020 10:04 5,2 C 5,0 C 5,0 C 95 % 1034,7 hPa 0,0 l/m 0 min 0 min 62 W/m 12,9 km/h (3 Bft) 97,67 %
20.11.2020 10:06 5,3 C 5,0 C 5,0 C 95 % 1034,7 hPa 0,0 l/m 0 min 0 min 63 W/m 12,9 km/h (3 Bft) 97,87 %
20.11.2020 10:08 5,3 C 5,0 C 5,0 C 95 % 1034,8 hPa 0,0 l/m 0 min 0 min 61 W/m 6,4 km/h (2 Bft) 97,87 %
20.11.2020 10:10 5,3 C 5,0 C 5,0 C 95 % 1034,7 hPa 0,0 l/m 0 min 0 min 58 W/m 9,7 km/h (2 Bft) 95,83 %
20.11.2020 10:12 5,3 C 5,0 C 5,0 C 94 % 1034,8 hPa 0,0 l/m 0 min 0 min 56 W/m 16,1 km/h (3 Bft) 97,96 %
20.11.2020 10:14 5,3 C 5,0 C 5,0 C 94 % 1034,8 hPa 0,0 l/m 0 min 0 min 58 W/m 9,7 km/h (2 Bft) 95,12 %
20.11.2020 10:16 5,3 C 5,0 C 5,0 C 94 % 1034,9 hPa 0,0 l/m 0 min 0 min 59 W/m 12,9 km/h (3 Bft) 96,15 %
20.11.2020 10:18 5,3 C 5,0 C 5,0 C 94 % 1034,9 hPa 0,0 l/m 0 min 0 min 60 W/m 6,4 km/h (2 Bft) 97,87 %
20.11.2020 10:20 5,4 C 5,6 C 5,0 C 94 % 1035,0 hPa 0,0 l/m 0 min 0 min 62 W/m 19,3 km/h (3 Bft) 94,29 %
20.11.2020 10:22 5,4 C 5,6 C 5,0 C 94 % 1035,1 hPa 0,0 l/m 0 min 0 min 64 W/m 6,4 km/h (2 Bft) 96,30 %
20.11.2020 10:24 5,4 C 5,6 C 5,0 C 94 % 1035,1 hPa 0,0 l/m 0 min 0 min 71 W/m 12,9 km/h (3 Bft) 95,92 %
20.11.2020 10:26 5,4 C 5,6 C 5,0 C 94 % 1035,2 hPa 0,0 l/m 0 min 0 min 79 W/m 3,2 km/h (1 Bft) 98,00 %
20.11.2020 10:28 5,4 C 5,6 C 5,0 C 94 % 1035,2 hPa 0,0 l/m 0 min 0 min 83 W/m 16,1 km/h (3 Bft) 95,65 %
20.11.2020 10:30 5,4 C 5,6 C 5,6 C 94 % 1035,3 hPa 0,0 l/m 0 min 0 min 89 W/m 0,0 km/h (0 Bft) 94,44 %
20.11.2020 10:32 5,5 C 5,6 C 5,6 C 94 % 1035,3 hPa 0,0 l/m 0 min 0 min 90 W/m 16,1 km/h (3 Bft) 96,43 %
20.11.2020 10:34 5,5 C 5,6 C 5,6 C 94 % 1035,3 hPa 0,0 l/m 0 min 0 min 91 W/m 12,9 km/h (3 Bft) 95,92 %
20.11.2020 10:36 5,5 C 5,6 C 5,6 C 94 % 1035,3 hPa 0,0 l/m 0 min 0 min 93 W/m 3,2 km/h (1 Bft) 95,74 %
20.11.2020 10:38 5,5 C 6,1 C 5,6 C 94 % 1035,4 hPa 0,0 l/m 0 min 0 min 98 W/m 16,1 km/h (3 Bft) 97,62 %
20.11.2020 10:40 5,5 C 6,1 C 5,6 C 94 % 1035,4 hPa 0,0 l/m 0 min 0 min 104 W/m 9,7 km/h (2 Bft) 96,00 %
20.11.2020 10:42 5,5 C 6,1 C 5,6 C 94 % 1035,5 hPa 0,0 l/m 0 min 0 min 104 W/m 16,1 km/h (3 Bft) 93,75 %
20.11.2020 10:44 5,5 C 6,1 C 5,6 C 94 % 1035,5 hPa 0,0 l/m 0 min 0 min 110 W/m 12,9 km/h (3 Bft) 97,14 %
20.11.2020 10:46 5,6 C 6,1 C 5,6 C 94 % 1035,6 hPa 0,0 l/m 0 min 0 min 114 W/m 9,7 km/h (2 Bft) 100,00 %
20.11.2020 10:48 5,6 C 6,1 C 5,6 C 94 % 1035,5 hPa 0,0 l/m 0 min 0 min 108 W/m 19,3 km/h (3 Bft) 97,87 %
20.11.2020 10:50 5,6 C 6,1 C 5,6 C 94 % 1035,6 hPa 0,0 l/m 0 min 0 min 100 W/m 3,2 km/h (1 Bft) 100,00 %
20.11.2020 10:52 5,6 C 6,1 C 5,6 C 94 % 1035,6 hPa 0,0 l/m 0 min 0 min 96 W/m 3,2 km/h (1 Bft) 100,00 %
20.11.2020 10:54 5,7 C 6,1 C 5,6 C 93 % 1035,6 hPa 0,0 l/m 0 min 0 min 97 W/m 3,2 km/h (1 Bft) 95,74 %
20.11.2020 10:56 5,7 C 6,1 C 5,6 C 93 % 1035,6 hPa 0,0 l/m 0 min 0 min 97 W/m 6,4 km/h (2 Bft) 100,00 %
20.11.2020 10:58 5,8 C 6,1 C 5,6 C 93 % 1035,5 hPa 0,0 l/m 0 min 0 min 101 W/m 9,7 km/h (2 Bft) 100,00 %
20.11.2020 11:00 5,8 C 6,1 C 5,6 C 93 % 1035,6 hPa 0,0 l/m 0 min 0 min 102 W/m 12,9 km/h (3 Bft) 100,00 %
20.11.2020 11:02 5,8 C 6,1 C 5,6 C 93 % 1035,6 hPa 0,0 l/m 0 min 0 min 99 W/m 6,4 km/h (2 Bft) 100,00 %
20.11.2020 11:04 5,8 C 6,1 C 5,6 C 93 % 1035,6 hPa 0,0 l/m 0 min 0 min 96 W/m 12,9 km/h (3 Bft) 98,04 %
20.11.2020 11:06 5,9 C 6,1 C 5,6 C 93 % 1035,6 hPa 0,0 l/m 0 min 0 min 90 W/m 9,7 km/h (2 Bft) 100,00 %
20.11.2020 11:08 5,9 C 6,1 C 5,6 C 93 % 1035,6 hPa 0,0 l/m 0 min 0 min 90 W/m 9,7 km/h (2 Bft) 100,00 %
20.11.2020 11:10 5,9 C 6,1 C 5,6 C 93 % 1035,6 hPa 0,0 l/m 0 min 0 min 91 W/m 6,4 km/h (2 Bft) 100,00 %
20.11.2020 11:12 5,9 C 6,1 C 5,6 C 92 % 1035,6 hPa 0,0 l/m 0 min 0 min 91 W/m 6,4 km/h (2 Bft) 94,12 %
20.11.2020 11:14 6,0 C 6,1 C 5,6 C 92 % 1035,6 hPa 0,0 l/m 0 min 0 min 89 W/m 9,7 km/h (2 Bft) 97,96 %
20.11.2020 11:16 6,0 C 6,1 C 5,6 C 92 % 1035,6 hPa 0,0 l/m 0 min 0 min 88 W/m 12,9 km/h (3 Bft) 100,00 %
20.11.2020 11:18 6,0 C 6,1 C 5,6 C 92 % 1035,7 hPa 0,0 l/m 0 min 0 min 89 W/m 6,4 km/h (2 Bft) 94,55 %
20.11.2020 11:20 6,0 C 6,1 C 5,6 C 92 % 1035,7 hPa 0,0 l/m 0 min 0 min 87 W/m 6,4 km/h (2 Bft) 97,92 %
20.11.2020 11:22 6,1 C 6,1 C 5,6 C 92 % 1035,7 hPa 0,0 l/m 0 min 0 min 83 W/m 3,2 km/h (1 Bft) 95,83 %
20.11.2020 11:24 6,1 C 6,1 C 5,6 C 92 % 1035,7 hPa 0,0 l/m 0 min 0 min 83 W/m 3,2 km/h (1 Bft) 95,83 %
20.11.2020 11:26 6,1 C 6,1 C 5,6 C 92 % 1035,8 hPa 0,0 l/m 0 min 0 min 82 W/m 16,1 km/h (3 Bft) 95,35 %
20.11.2020 11:28 6,1 C 6,1 C 5,6 C 92 % 1035,7 hPa 0,0 l/m 0 min 0 min 81 W/m 19,3 km/h (3 Bft) 96,00 %
20.11.2020 11:30 6,1 C 6,1 C 5,6 C 92 % 1035,7 hPa 0,0 l/m 0 min 0 min 85 W/m 3,2 km/h (1 Bft) 93,62 %
20.11.2020 11:32 6,2 C 6,1 C 5,6 C 92 % 1035,7 hPa 0,0 l/m 0 min 0 min 92 W/m 12,9 km/h (3 Bft) 94,29 %
20.11.2020 11:34 6,2 C 6,7 C 6,1 C 92 % 1035,7 hPa 0,0 l/m 0 min 0 min 100 W/m 6,4 km/h (2 Bft) 96,49 %
20.11.2020 11:36 6,3 C 6,7 C 6,1 C 92 % 1035,7 hPa 0,0 l/m 0 min 0 min 99 W/m 0,0 km/h (0 Bft) 91,84 %
20.11.2020 11:38 6,3 C 6,7 C 6,1 C 92 % 1035,7 hPa 0,0 l/m 0 min 0 min 92 W/m 9,7 km/h (2 Bft) 97,14 %
20.11.2020 11:40 6,4 C 6,7 C 6,1 C 91 % 1035,8 hPa 0,0 l/m 0 min 0 min 86 W/m 9,7 km/h (2 Bft) 92,98 %
20.11.2020 11:42 6,4 C 6,7 C 6,1 C 91 % 1035,8 hPa 0,0 l/m 0 min 0 min 88 W/m 6,4 km/h (2 Bft) 94,44 %
20.11.2020 11:44 6,4 C 6,7 C 6,1 C 91 % 1035,8 hPa 0,0 l/m 0 min 0 min 91 W/m 3,2 km/h (1 Bft) 96,61 %
20.11.2020 11:46 6,4 C 6,7 C 6,1 C 91 % 1035,8 hPa 0,0 l/m 0 min 0 min 85 W/m 12,9 km/h (3 Bft) 94,29 %
20.11.2020 11:48 6,4 C 6,7 C 6,1 C 91 % 1035,8 hPa 0,0 l/m 0 min 0 min 80 W/m 12,9 km/h (3 Bft) 94,64 %
20.11.2020 11:50 6,4 C 6,7 C 5,6 C 91 % 1035,8 hPa 0,0 l/m 0 min 0 min 73 W/m 9,7 km/h (2 Bft) 93,88 %
20.11.2020 11:52 6,4 C 6,7 C 6,1 C 91 % 1035,8 hPa 0,0 l/m 0 min 0 min 69 W/m 6,4 km/h (2 Bft) 95,24 %
20.11.2020 11:54 6,4 C 6,7 C 5,6 C 91 % 1035,8 hPa 0,0 l/m 0 min 0 min 63 W/m 9,7 km/h (2 Bft) 93,62 %
20.11.2020 11:56 6,5 C 6,7 C 5,6 C 91 % 1035,8 hPa 0,0 l/m 0 min 0 min 64 W/m 16,1 km/h (3 Bft) 88,46 %
20.11.2020 11:58 6,5 C 6,7 C 5,6 C 91 % 1035,7 hPa 0,0 l/m 0 min 0 min 67 W/m 22,5 km/h (4 Bft) 95,74 %
20.11.2020 12:00 6,5 C 6,7 C 5,6 C 90 % 1035,7 hPa 0,0 l/m 0 min 0 min 73 W/m 12,9 km/h (3 Bft) 97,14 %
20.11.2020 12:02 6,5 C 6,7 C 5,6 C 90 % 1035,7 hPa 0,0 l/m 0 min 0 min 79 W/m 9,7 km/h (2 Bft) 94,55 %
20.11.2020 12:04 6,5 C 6,7 C 6,1 C 90 % 1035,8 hPa 0,0 l/m 0 min 0 min 83 W/m 6,4 km/h (2 Bft) 94,00 %
20.11.2020 12:08 6,5 C 6,7 C 6,1 C 90 % 1035,7 hPa 0,0 l/m 0 min 0 min 86 W/m 12,9 km/h (3 Bft) 92,68 %
20.11.2020 12:10 6,5 C 6,7 C 6,1 C 90 % 1035,7 hPa 0,0 l/m 0 min 0 min 93 W/m 3,2 km/h (1 Bft) 98,21 %
20.11.2020 12:12 6,5 C 6,7 C 6,1 C 90 % 1035,7 hPa 0,0 l/m 0 min 0 min 99 W/m 0,0 km/h (0 Bft) 100,00 %
20.11.2020 12:14 6,6 C 6,7 C 6,1 C 90 % 1035,7 hPa 0,0 l/m 0 min 0 min 106 W/m 3,2 km/h (1 Bft) 97,56 %
20.11.2020 12:16 6,6 C 7,2 C 6,1 C 90 % 1035,8 hPa 0,0 l/m 0 min 0 min 109 W/m 9,7 km/h (2 Bft) 95,83 %
20.11.2020 12:18 6,6 C 7,2 C 6,1 C 90 % 1035,7 hPa 0,0 l/m 0 min 0 min 105 W/m 9,7 km/h (2 Bft) 98,04 %
20.11.2020 12:20 6,6 C 7,2 C 6,1 C 90 % 1035,8 hPa 0,0 l/m 0 min 0 min 101 W/m 12,9 km/h (3 Bft) 100,00 %
20.11.2020 12:22 6,6 C 7,2 C 6,1 C 90 % 1035,7 hPa 0,0 l/m 0 min 0 min 100 W/m 6,4 km/h (2 Bft) 100,00 %
20.11.2020 12:24 6,6 C 7,2 C 6,1 C 89 % 1035,8 hPa 0,0 l/m 0 min 0 min 105 W/m 12,9 km/h (3 Bft) 100,00 %
20.11.2020 12:26 6,7 C 7,2 C 6,1 C 89 % 1035,6 hPa 0,0 l/m 0 min 0 min 117 W/m 3,2 km/h (1 Bft) 94,44 %
20.11.2020 12:28 6,7 C 7,2 C 6,7 C 89 % 1035,6 hPa 0,0 l/m 0 min 0 min 132 W/m 3,2 km/h (1 Bft) 100,00 %
20.11.2020 12:30 6,7 C 7,2 C 6,7 C 89 % 1035,6 hPa 0,0 l/m 0 min 0 min 142 W/m 9,7 km/h (2 Bft) 97,14 %
20.11.2020 12:32 6,8 C 7,8 C 6,7 C 89 % 1035,6 hPa 0,0 l/m 0 min 0 min 142 W/m 12,9 km/h (3 Bft) 100,00 %
20.11.2020 12:34 6,8 C 7,8 C 6,7 C 89 % 1035,5 hPa 0,0 l/m 0 min 0 min 142 W/m 9,7 km/h (2 Bft) 98,04 %
20.11.2020 12:36 6,8 C 7,8 C 6,7 C 89 % 1035,5 hPa 0,0 l/m 0 min 0 min 144 W/m 16,1 km/h (3 Bft) 100,00 %
20.11.2020 12:38 6,8 C 7,8 C 6,7 C 88 % 1035,5 hPa 0,0 l/m 0 min 0 min 144 W/m 9,7 km/h (2 Bft) 100,00 %
20.11.2020 12:40 6,8 C 7,8 C 6,7 C 88 % 1035,6 hPa 0,0 l/m 0 min 0 min 142 W/m 12,9 km/h (3 Bft) 100,00 %
20.11.2020 12:42 6,9 C 7,8 C 6,7 C 88 % 1035,6 hPa 0,0 l/m 0 min 0 min 135 W/m 12,9 km/h (3 Bft) 93,62 %
20.11.2020 12:44 6,9 C 7,8 C 6,7 C 88 % 1035,6 hPa 0,0 l/m 0 min 0 min 128 W/m 3,2 km/h (1 Bft) 100,00 %
20.11.2020 12:46 6,9 C 7,8 C 6,7 C 88 % 1035,6 hPa 0,0 l/m 0 min 0 min 128 W/m 6,4 km/h (2 Bft) 100,00 %
20.11.2020 12:48 7,0 C 7,8 C 6,7 C 88 % 1035,5 hPa 0,0 l/m 0 min 0 min 136 W/m 3,2 km/h (1 Bft) 100,00 %
20.11.2020 12:50 7,0 C 7,8 C 7,2 C 88 % 1035,5 hPa 0,0 l/m 0 min 0 min 153 W/m 9,7 km/h (2 Bft) 97,67 %
20.11.2020 12:52 7,0 C 8,3 C 7,2 C 87 % 1035,6 hPa 0,0 l/m 2 min 0 min 169 W/m 3,2 km/h (1 Bft) 96,00 %
20.11.2020 12:54 7,1 C 9,4 C 7,8 C 87 % 1035,6 hPa 0,0 l/m 2 min 0 min 186 W/m 6,4 km/h (2 Bft) 100,00 %
20.11.2020 12:56 7,1 C 10,0 C 8,4 C 87 % 1035,6 hPa 0,0 l/m 2 min 0 min 223 W/m 0,0 km/h (0 Bft) 97,87 %
20.11.2020 12:58 7,1 C 10,0 C 8,9 C 87 % 1035,6 hPa 0,0 l/m 2 min 0 min 210 W/m 6,4 km/h (2 Bft) 97,62 %
20.11.2020 13:00 7,2 C 10,6 C 8,9 C 87 % 1035,6 hPa 0,0 l/m 2 min 0 min 235 W/m 3,2 km/h (1 Bft) 98,04 %
20.11.2020 13:02 7,3 C 11,1 C 9,5 C 87 % 1035,5 hPa 0,0 l/m 2 min 0 min 324 W/m 3,2 km/h (1 Bft) 95,74 %
20.11.2020 13:04 7,4 C 12,2 C 10,6 C 87 % 1035,5 hPa 0,0 l/m 2 min 0 min 352 W/m 9,7 km/h (2 Bft) 97,14 %
20.11.2020 13:06 7,4 C 12,8 C 10,6 C 87 % 1035,4 hPa 0,0 l/m 2 min 0 min 375 W/m 12,9 km/h (3 Bft) 97,87 %
20.11.2020 13:08 7,5 C 12,2 C 10,6 C 86 % 1035,4 hPa 0,0 l/m 2 min 0 min 377 W/m 6,4 km/h (2 Bft) 98,18 %
20.11.2020 13:10 7,6 C 12,2 C 11,1 C 86 % 1035,4 hPa 0,0 l/m 2 min 0 min 360 W/m 3,2 km/h (1 Bft) 98,00 %
20.11.2020 13:12 7,7 C 11,1 C 11,1 C 85 % 1035,4 hPa 0,0 l/m 2 min 0 min 353 W/m 19,3 km/h (3 Bft) 95,74 %
20.11.2020 13:14 7,8 C 12,8 C 12,2 C 85 % 1035,4 hPa 0,0 l/m 2 min 0 min 348 W/m 3,2 km/h (1 Bft) 97,62 %
20.11.2020 13:16 7,9 C 12,8 C 12,2 C 84 % 1035,3 hPa 0,0 l/m 2 min 0 min 336 W/m 6,4 km/h (2 Bft) 96,00 %
20.11.2020 13:18 8,0 C 12,8 C 12,2 C 84 % 1035,4 hPa 0,0 l/m 2 min 0 min 338 W/m 6,4 km/h (2 Bft) 93,88 %
20.11.2020 13:20 8,1 C 13,3 C 12,2 C 83 % 1035,4 hPa 0,0 l/m 2 min 0 min 336 W/m 19,3 km/h (3 Bft) 97,14 %
20.11.2020 13:22 8,1 C 13,9 C 12,8 C 82 % 1035,4 hPa 0,0 l/m 2 min 0 min 332 W/m 6,4 km/h (2 Bft) 96,55 %
20.11.2020 13:24 8,2 C 13,9 C 13,4 C 82 % 1035,4 hPa 0,0 l/m 2 min 0 min 333 W/m 3,2 km/h (1 Bft) 97,87 %
20.11.2020 13:26 8,3 C 13,3 C 13,4 C 82 % 1035,4 hPa 0,0 l/m 2 min 0 min 332 W/m 16,1 km/h (3 Bft) 100,00 %
20.11.2020 13:28 8,3 C 12,2 C 12,2 C 81 % 1035,4 hPa 0,0 l/m 2 min 0 min 328 W/m 6,4 km/h (2 Bft) 94,34 %
20.11.2020 13:30 8,4 C 12,8 C 12,2 C 81 % 1035,4 hPa 0,0 l/m 2 min 0 min 327 W/m 6,4 km/h (2 Bft) 96,00 %
20.11.2020 13:32 8,4 C 13,3 C 13,4 C 81 % 1035,4 hPa 0,0 l/m 2 min 0 min 324 W/m 6,4 km/h (2 Bft) 94,12 %
20.11.2020 13:34 8,5 C 13,3 C 12,2 C 80 % 1035,3 hPa 0,0 l/m 2 min 0 min 323 W/m 6,4 km/h (2 Bft) 97,50 %
20.11.2020 13:36 8,5 C 13,3 C 11,1 C 81 % 1035,4 hPa 0,0 l/m 2 min 0 min 345 W/m 6,4 km/h (2 Bft) 95,74 %
20.11.2020 13:38 8,6 C 13,3 C 10,0 C 80 % 1035,4 hPa 0,0 l/m 2 min 0 min 329 W/m 12,9 km/h (3 Bft) 96,30 %
20.11.2020 13:40 8,6 C 12,8 C 9,5 C 79 % 1035,4 hPa 0,0 l/m 2 min 0 min 318 W/m 16,1 km/h (3 Bft) 97,92 %
20.11.2020 13:42 8,6 C 12,8 C 9,5 C 78 % 1035,4 hPa 0,0 l/m 2 min 0 min 316 W/m 6,4 km/h (2 Bft) 47,37 %
20.11.2020 13:44 8,7 C 12,8 C 10,0 C 78 % 1035,2 hPa 0,0 l/m 2 min 0 min 312 W/m 16,1 km/h (3 Bft) 95,65 %
20.11.2020 13:46 8,7 C 13,3 C 10,0 C 78 % 1035,2 hPa 0,0 l/m 2 min 0 min 312 W/m 16,1 km/h (3 Bft) 96,36 %
20.11.2020 13:48 8,8 C 12,8 C 10,0 C 78 % 1035,2 hPa 0,0 l/m 2 min 0 min 308 W/m 12,9 km/h (3 Bft) 91,49 %
20.11.2020 13:50 8,8 C 12,2 C 10,6 C 77 % 1035,2 hPa 0,0 l/m 2 min 0 min 304 W/m 16,1 km/h (3 Bft) 97,22 %
20.11.2020 13:52 8,8 C 12,8 C 11,1 C 77 % 1035,2 hPa 0,0 l/m 2 min 0 min 301 W/m 16,1 km/h (3 Bft) 94,00 %
20.11.2020 13:54 8,8 C 13,3 C 11,7 C 78 % 1035,2 hPa 0,0 l/m 2 min 0 min 298 W/m 6,4 km/h (2 Bft) 92,73 %
20.11.2020 13:56 8,8 C 11,1 C 11,7 C 78 % 1035,2 hPa 0,0 l/m 2 min 0 min 293 W/m 19,3 km/h (3 Bft) 92,11 %
20.11.2020 13:58 8,8 C 12,2 C 12,2 C 78 % 1035,1 hPa 0,0 l/m 2 min 0 min 294 W/m 12,9 km/h (3 Bft) 93,62 %
20.11.2020 14:00 8,8 C 12,2 C 12,8 C 78 % 1035,2 hPa 0,0 l/m 2 min 0 min 286 W/m 6,4 km/h (2 Bft) 96,36 %
20.11.2020 14:02 8,9 C 11,7 C 12,2 C 79 % 1035,1 hPa 0,0 l/m 2 min 0 min 282 W/m 12,9 km/h (3 Bft) 89,74 %
20.11.2020 14:04 8,9 C 11,7 C 12,2 C 79 % 1035,2 hPa 0,0 l/m 2 min 0 min 282 W/m 12,9 km/h (3 Bft) 93,62 %
20.11.2020 14:06 8,9 C 11,1 C 11,7 C 79 % 1035,1 hPa 0,0 l/m 2 min 0 min 274 W/m 19,3 km/h (3 Bft) 93,33 %
20.11.2020 14:08 9,0 C 12,2 C 12,2 C 79 % 1035,1 hPa 0,0 l/m 2 min 0 min 272 W/m 12,9 km/h (3 Bft) 93,75 %
20.11.2020 14:10 9,0 C 12,2 C 12,2 C 79 % 1035,1 hPa 0,0 l/m 2 min 0 min 276 W/m 19,3 km/h (3 Bft) 91,49 %
20.11.2020 14:12 9,0 C 12,8 C 12,2 C 78 % 1035,0 hPa 0,0 l/m 2 min 0 min 284 W/m 22,5 km/h (4 Bft) 93,62 %
20.11.2020 14:14 9,0 C 12,2 C 12,2 C 77 % 1035,1 hPa 0,0 l/m 2 min 0 min 277 W/m 22,5 km/h (4 Bft) 92,59 %
20.11.2020 14:16 9,0 C 12,2 C 11,7 C 76 % 1035,1 hPa 0,0 l/m 2 min 0 min 284 W/m 22,5 km/h (4 Bft) 95,00 %
20.11.2020 14:18 8,9 C 12,8 C 12,2 C 76 % 1035,0 hPa 0,0 l/m 2 min 0 min 270 W/m 12,9 km/h (3 Bft) 95,65 %
20.11.2020 14:20 8,9 C 12,2 C 11,7 C 76 % 1035,2 hPa 0,0 l/m 2 min 0 min 260 W/m 16,1 km/h (3 Bft) 94,44 %
20.11.2020 14:22 8,9 C 12,2 C 10,0 C 76 % 1035,0 hPa 0,0 l/m 2 min 0 min 258 W/m 16,1 km/h (3 Bft) 94,87 %
20.11.2020 14:24 9,0 C 12,8 C 8,9 C 77 % 1035,0 hPa 0,0 l/m 2 min 0 min 253 W/m 12,9 km/h (3 Bft) 93,75 %
20.11.2020 14:26 9,0 C 12,2 C 8,4 C 78 % 1035,0 hPa 0,0 l/m 2 min 0 min 248 W/m 25,7 km/h (4 Bft) 98,15 %
20.11.2020 14:28 9,0 C 11,1 C 7,8 C 78 % 1035,0 hPa 0,0 l/m 2 min 0 min 246 W/m 16,1 km/h (3 Bft) 100,00 %
20.11.2020 14:30 9,0 C 11,1 C 7,8 C 78 % 1035,0 hPa 0,0 l/m 2 min 0 min 244 W/m 16,1 km/h (3 Bft) 100,00 %
20.11.2020 14:32 9,0 C 12,2 C 7,2 C 78 % 1035,0 hPa 0,0 l/m 2 min 0 min 242 W/m 16,1 km/h (3 Bft) 100,00 %
20.11.2020 14:34 9,0 C 12,2 C 7,2 C 78 % 1035,0 hPa 0,0 l/m 2 min 0 min 238 W/m 6,4 km/h (2 Bft) 98,18 %
20.11.2020 14:36 9,0 C 11,1 C 7,2 C 78 % 1034,9 hPa 0,0 l/m 2 min 0 min 236 W/m 16,1 km/h (3 Bft) 100,00 %
20.11.2020 14:38 9,0 C 10,6 C 7,2 C 78 % 1034,9 hPa 0,0 l/m 2 min 0 min 229 W/m 16,1 km/h (3 Bft) 100,00 %
20.11.2020 14:40 8,9 C 10,6 C 6,7 C 79 % 1034,9 hPa 0,0 l/m 2 min 0 min 218 W/m 19,3 km/h (3 Bft) 100,00 %
20.11.2020 14:42 8,9 C 10,6 C 6,7 C 78 % 1034,8 hPa 0,0 l/m 2 min 0 min 218 W/m 16,1 km/h (3 Bft) 100,00 %
20.11.2020 14:44 8,9 C 10,6 C 6,7 C 78 % 1034,8 hPa 0,0 l/m 2 min 0 min 204 W/m 19,3 km/h (3 Bft) 100,00 %
20.11.2020 14:46 8,9 C 10,6 C 6,7 C 78 % 1034,8 hPa 0,0 l/m 2 min 0 min 177 W/m 22,5 km/h (4 Bft) 100,00 %
20.11.2020 14:48 8,9 C 10,6 C 6,7 C 78 % 1034,9 hPa 0,0 l/m 2 min 0 min 181 W/m 12,9 km/h (3 Bft) 98,15 %
20.11.2020 14:50 8,8 C 10,0 C 6,7 C 78 % 1034,8 hPa 0,0 l/m 2 min 0 min 170 W/m 16,1 km/h (3 Bft) 100,00 %
20.11.2020 14:52 8,8 C 9,4 C 6,7 C 79 % 1034,8 hPa 0,0 l/m 2 min 0 min 142 W/m 19,3 km/h (3 Bft) 100,00 %
20.11.2020 14:54 8,8 C 9,4 C 6,7 C 79 % 1034,7 hPa 0,0 l/m 2 min 0 min 164 W/m 16,1 km/h (3 Bft) 98,18 %
20.11.2020 14:56 8,8 C 10,0 C 6,7 C 79 % 1034,7 hPa 0,0 l/m 2 min 0 min 170 W/m 12,9 km/h (3 Bft) 100,00 %
20.11.2020 14:58 8,8 C 9,4 C 6,7 C 79 % 1034,7 hPa 0,0 l/m 2 min 0 min 174 W/m 19,3 km/h (3 Bft) 100,00 %
20.11.2020 15:00 8,7 C 9,4 C 6,7 C 78 % 1034,7 hPa 0,0 l/m 2 min 0 min 174 W/m 12,9 km/h (3 Bft) 100,00 %
20.11.2020 15:02 8,6 C 10,0 C 6,7 C 78 % 1034,8 hPa 0,0 l/m 2 min 0 min 175 W/m 16,1 km/h (3 Bft) 97,44 %
20.11.2020 15:04 8,6 C 9,4 C 6,7 C 79 % 1034,7 hPa 0,0 l/m 2 min 0 min 160 W/m 19,3 km/h (3 Bft) 100,00 %
20.11.2020 15:06 8,6 C 10,0 C 6,7 C 79 % 1034,7 hPa 0,0 l/m 2 min 0 min 125 W/m 12,9 km/h (3 Bft) 97,92 %
20.11.2020 15:08 8,6 C 9,4 C 6,7 C 79 % 1034,8 hPa 0,0 l/m 2 min 0 min 138 W/m 16,1 km/h (3 Bft) 100,00 %
20.11.2020 15:10 8,6 C 9,4 C 6,7 C 79 % 1034,8 hPa 0,0 l/m 2 min 0 min 147 W/m 12,9 km/h (3 Bft) 100,00 %
20.11.2020 15:12 8,5 C 10,0 C 6,7 C 79 % 1034,8 hPa 0,0 l/m 2 min 0 min 116 W/m 16,1 km/h (3 Bft) 100,00 %
20.11.2020 15:14 8,5 C 10,0 C 6,7 C 79 % 1034,8 hPa 0,0 l/m 2 min 0 min 106 W/m 12,9 km/h (3 Bft) 100,00 %
20.11.2020 15:16 8,5 C 10,0 C 6,7 C 79 % 1034,9 hPa 0,0 l/m 2 min 0 min 113 W/m 16,1 km/h (3 Bft) 100,00 %
20.11.2020 15:18 8,5 C 9,4 C 6,1 C 78 % 1034,9 hPa 0,0 l/m 2 min 0 min 134 W/m 16,1 km/h (3 Bft) 100,00 %
20.11.2020 15:20 8,5 C 10,0 C 6,1 C 77 % 1034,9 hPa 0,0 l/m 2 min 0 min 132 W/m 9,7 km/h (2 Bft) 100,00 %
20.11.2020 15:22 8,5 C 10,0 C 6,1 C 78 % 1034,9 hPa 0,0 l/m 2 min 0 min 127 W/m 12,9 km/h (3 Bft) 97,87 %
20.11.2020 15:24 8,5 C 10,0 C 6,1 C 78 % 1034,9 hPa 0,0 l/m 2 min 0 min 123 W/m 9,7 km/h (2 Bft) 100,00 %
20.11.2020 15:26 8,5 C 9,4 C 6,1 C 78 % 1034,9 hPa 0,0 l/m 2 min 0 min 117 W/m 9,7 km/h (2 Bft) 100,00 %
20.11.2020 15:28 8,5 C 8,9 C 6,1 C 78 % 1034,8 hPa 0,0 l/m 2 min 0 min 113 W/m 12,9 km/h (3 Bft) 100,00 %
20.11.2020 15:30 8,5 C 8,3 C 6,1 C 78 % 1034,8 hPa 0,0 l/m 2 min 0 min 107 W/m 19,3 km/h (3 Bft) 100,00 %
20.11.2020 15:32 8,5 C 8,3 C 6,1 C 78 % 1034,8 hPa 0,0 l/m 2 min 0 min 104 W/m 16,1 km/h (3 Bft) 97,37 %
20.11.2020 15:34 8,4 C 8,3 C 6,1 C 78 % 1034,9 hPa 0,0 l/m 2 min 0 min 93 W/m 12,9 km/h (3 Bft) 97,87 %
20.11.2020 15:36 8,4 C 8,3 C 6,1 C 78 % 1034,9 hPa 0,0 l/m 0 min 0 min 58 W/m 6,4 km/h (2 Bft) 100,00 %
20.11.2020 15:38 8,4 C 8,3 C 5,6 C 79 % 1035,0 hPa 0,0 l/m 0 min 0 min 50 W/m 6,4 km/h (2 Bft) 100,00 %
20.11.2020 15:40 8,4 C 8,3 C 5,6 C 79 % 1034,9 hPa 0,0 l/m 2 min 0 min 74 W/m 6,4 km/h (2 Bft) 100,00 %
20.11.2020 15:42 8,4 C 8,3 C 5,6 C 79 % 1035,0 hPa 0,0 l/m 2 min 0 min 65 W/m 12,9 km/h (3 Bft) 100,00 %
20.11.2020 15:44 8,3 C 8,3 C 5,6 C 79 % 1035,0 hPa 0,0 l/m 2 min 0 min 57 W/m 12,9 km/h (3 Bft) 100,00 %
20.11.2020 15:46 8,3 C 8,9 C 5,6 C 79 % 1035,0 hPa 0,0 l/m 2 min 0 min 62 W/m 12,9 km/h (3 Bft) 100,00 %
20.11.2020 15:48 8,3 C 8,3 C 5,6 C 79 % 1035,0 hPa 0,0 l/m 2 min 0 min 63 W/m 12,9 km/h (3 Bft) 100,00 %
20.11.2020 15:50 8,3 C 7,8 C 5,6 C 79 % 1035,0 hPa 0,0 l/m 2 min 0 min 59 W/m 12,9 km/h (3 Bft) 100,00 %
20.11.2020 15:52 8,2 C 7,8 C 5,6 C 79 % 1035,0 hPa 0,0 l/m 2 min 0 min 57 W/m 16,1 km/h (3 Bft) 96,30 %
20.11.2020 15:54 8,1 C 7,2 C 5,6 C 79 % 1035,0 hPa 0,0 l/m 2 min 0 min 56 W/m 12,9 km/h (3 Bft) 94,87 %
20.11.2020 15:56 8,1 C 7,2 C 5,6 C 79 % 1035,0 hPa 0,0 l/m 2 min 0 min 44 W/m 12,9 km/h (3 Bft) 97,87 %
20.11.2020 15:58 8,1 C 7,2 C 5,6 C 79 % 1035,0 hPa 0,0 l/m 0 min 0 min 34 W/m 3,2 km/h (1 Bft) 93,62 %
20.11.2020 16:00 8,0 C 7,2 C 5,6 C 79 % 1035,0 hPa 0,0 l/m 0 min 0 min 32 W/m 6,4 km/h (2 Bft) 98,18 %
20.11.2020 16:02 8,0 C 6,7 C 5,6 C 79 % 1035,0 hPa 0,0 l/m 0 min 0 min 26 W/m 6,4 km/h (2 Bft) 97,37 %
20.11.2020 16:05 8,0 C 6,7 C 5,0 C 80 % 1035,0 hPa 0,0 l/m 0 min 0 min 18 W/m 6,4 km/h (2 Bft) 97,40 %
20.11.2020 16:06 8,0 C 6,7 C 5,0 C 80 % 1035,0 hPa 0,0 l/m 0 min 0 min 16 W/m 3,2 km/h (1 Bft) 100,00 %
20.11.2020 16:08 7,9 C 6,7 C 5,0 C 80 % 1035,0 hPa 0,0 l/m 0 min 0 min 16 W/m 6,4 km/h (2 Bft) 95,83 %
20.11.2020 16:11 7,9 C 6,7 C 5,0 C 80 % 1035,0 hPa 0,0 l/m 0 min 0 min 15 W/m 6,4 km/h (2 Bft) 94,52 %
20.11.2020 16:12 7,9 C 6,7 C 5,0 C 80 % 1035,0 hPa 0,0 l/m 0 min 0 min 14 W/m 6,4 km/h (2 Bft) 100,00 %
20.11.2020 16:16 7,8 C 6,1 C 5,0 C 80 % 1035,0 hPa 0,0 l/m 0 min 0 min 11 W/m 3,2 km/h (1 Bft) 95,45 %
20.11.2020 16:18 7,7 C 6,1 C 5,0 C 80 % 1035,0 hPa 0,0 l/m 0 min 0 min 11 W/m 6,4 km/h (2 Bft) 94,59 %
20.11.2020 16:20 7,6 C 6,1 C 5,0 C 81 % 1035,0 hPa 0,0 l/m 0 min 0 min 9 W/m 6,4 km/h (2 Bft) 95,83 %
20.11.2020 16:22 7,6 C 6,1 C 5,0 C 81 % 1035,1 hPa 0,0 l/m 0 min 0 min 9 W/m 6,4 km/h (2 Bft) 93,62 %
20.11.2020 16:24 7,5 C 6,1 C 4,5 C 81 % 1035,1 hPa 0,0 l/m 0 min 0 min 9 W/m 6,4 km/h (2 Bft) 96,36 %
20.11.2020 16:26 7,5 C 6,1 C 4,5 C 81 % 1035,1 hPa 0,0 l/m 0 min 0 min 9 W/m 3,2 km/h (1 Bft) 73,68 %
20.11.2020 16:28 7,5 C 6,1 C 4,5 C 81 % 1035,2 hPa 0,0 l/m 0 min 0 min 9 W/m 3,2 km/h (1 Bft) 22,50 %
20.11.2020 16:30 7,4 C 6,1 C 4,5 C 81 % 1035,2 hPa 0,0 l/m 0 min 0 min 7 W/m 6,4 km/h (2 Bft) 92,73 %
20.11.2020 16:32 7,4 C 6,1 C 4,5 C 81 % 1035,2 hPa 0,0 l/m 0 min 0 min 5 W/m 6,4 km/h (2 Bft) 92,31 %
20.11.2020 16:34 7,3 C 6,1 C 4,5 C 81 % 1035,2 hPa 0,0 l/m 0 min 0 min 5 W/m 6,4 km/h (2 Bft) 93,62 %
20.11.2020 16:36 7,3 C 6,1 C 4,5 C 82 % 1035,1 hPa 0,0 l/m 0 min 0 min 5 W/m 6,4 km/h (2 Bft) 96,36 %
20.11.2020 16:38 7,2 C 6,1 C 4,5 C 82 % 1035,1 hPa 0,0 l/m 0 min 0 min 4 W/m 6,4 km/h (2 Bft) 97,37 %
20.11.2020 16:40 7,1 C 6,1 C 4,5 C 82 % 1035,2 hPa 0,0 l/m 0 min 0 min 0 W/m 6,4 km/h (2 Bft) 95,74 %
20.11.2020 16:42 7,1 C 5,6 C 4,5 C 82 % 1035,2 hPa 0,0 l/m 0 min 0 min 0 W/m 12,9 km/h (3 Bft) 95,74 %
20.11.2020 16:44 7,0 C 5,6 C 4,5 C 82 % 1035,2 hPa 0,0 l/m 0 min 0 min 0 W/m 16,1 km/h (3 Bft) 95,45 %
20.11.2020 16:46 7,0 C 5,6 C 4,5 C 82 % 1035,2 hPa 0,0 l/m 0 min 0 min 0 W/m 12,9 km/h (3 Bft) 94,00 %
20.11.2020 16:48 6,9 C 5,6 C 4,5 C 82 % 1035,2 hPa 0,0 l/m 0 min 0 min 0 W/m 16,1 km/h (3 Bft) 93,62 %
20.11.2020 16:50 6,8 C 5,6 C 4,5 C 82 % 1035,2 hPa 0,0 l/m 0 min 0 min 0 W/m 12,9 km/h (3 Bft) 95,65 %
20.11.2020 16:52 6,8 C 5,6 C 4,5 C 82 % 1035,3 hPa 0,0 l/m 0 min 0 min 0 W/m 6,4 km/h (2 Bft) 95,74 %
20.11.2020 16:54 6,7 C 5,6 C 3,9 C 82 % 1035,3 hPa 0,0 l/m 0 min 0 min 0 W/m 3,2 km/h (1 Bft) 96,36 %
20.11.2020 16:56 6,7 C 5,6 C 3,9 C 82 % 1035,3 hPa 0,0 l/m 0 min 0 min 0 W/m 3,2 km/h (1 Bft) 97,37 %
20.11.2020 16:58 6,6 C 5,6 C 3,9 C 82 % 1035,3 hPa 0,0 l/m 0 min 0 min 0 W/m 3,2 km/h (1 Bft) 95,74 %
20.11.2020 17:00 6,6 C 5,6 C 3,9 C 82 % 1035,2 hPa 0,0 l/m 0 min 0 min 0 W/m 12,9 km/h (3 Bft) 95,74 %
20.11.2020 17:02 6,5 C 5,6 C 3,9 C 82 % 1035,2 hPa 0,0 l/m 0 min 0 min 0 W/m 3,2 km/h (1 Bft) 95,74 %
20.11.2020 17:04 6,5 C 5,6 C 3,9 C 82 % 1035,2 hPa 0,0 l/m 0 min 0 min 0 W/m 6,4 km/h (2 Bft) 93,62 %
20.11.2020 17:06 6,4 C 5,6 C 3,9 C 82 % 1035,3 hPa 0,0 l/m 0 min 0 min 0 W/m 3,2 km/h (1 Bft) 94,55 %
20.11.2020 17:08 6,4 C 5,6 C 3,9 C 82 % 1035,3 hPa 0,0 l/m 0 min 0 min 0 W/m 3,2 km/h (1 Bft) 97,44 %
20.11.2020 17:10 6,4 C 5,6 C 3,9 C 82 % 1035,4 hPa 0,0 l/m 0 min 0 min 0 W/m 3,2 km/h (1 Bft) 93,62 %
20.11.2020 17:12 6,4 C 5,0 C 3,9 C 82 % 1035,4 hPa 0,0 l/m 0 min 0 min 0 W/m 3,2 km/h (1 Bft) 93,48 %
20.11.2020 17:14 6,3 C 5,0 C 3,9 C 82 % 1035,4 hPa 0,0 l/m 0 min 0 min 0 W/m 3,2 km/h (1 Bft) 95,74 %
20.11.2020 17:16 6,3 C 5,0 C 3,9 C 82 % 1035,4 hPa 0,0 l/m 0 min 0 min 0 W/m 6,4 km/h (2 Bft) 95,74 %
20.11.2020 17:18 6,3 C 5,0 C 3,9 C 82 % 1035,3 hPa 0,0 l/m 0 min 0 min 0 W/m 0,0 km/h (0 Bft) 96,23 %
20.11.2020 17:20 6,2 C 5,0 C 3,9 C 82 % 1035,4 hPa 0,0 l/m 0 min 0 min 0 W/m 0,0 km/h (0 Bft) 97,87 %
20.11.2020 17:22 6,1 C 5,0 C 3,9 C 82 % 1035,4 hPa 0,0 l/m 0 min 0 min 0 W/m 0,0 km/h (0 Bft) 100,00 %
20.11.2020 17:24 6,1 C 5,0 C 3,9 C 82 % 1035,4 hPa 0,0 l/m 0 min 0 min 0 W/m 0,0 km/h (0 Bft) 100,00 %
20.11.2020 17:26 6,1 C 5,0 C 3,9 C 83 % 1035,4 hPa 0,0 l/m 0 min 0 min 0 W/m 0,0 km/h (0 Bft) 100,00 %
20.11.2020 17:28 6,1 C 5,0 C 3,9 C 83 % 1035,3 hPa 0,0 l/m 0 min 0 min 0 W/m 0,0 km/h (0 Bft) 97,30 %
20.11.2020 17:30 6,0 C 5,0 C 3,9 C 83 % 1035,3 hPa 0,0 l/m 0 min 0 min 0 W/m 0,0 km/h (0 Bft) 97,92 %
20.11.2020 17:32 6,0 C 5,0 C 3,4 C 83 % 1035,4 hPa 0,0 l/m 0 min 0 min 0 W/m 0,0 km/h (0 Bft) 98,18 %
20.11.2020 17:34 6,0 C 5,0 C 3,4 C 83 % 1035,4 hPa 0,0 l/m 0 min 0 min 0 W/m 0,0 km/h (0 Bft) 100,00 %
20.11.2020 17:36 6,0 C 5,0 C 3,4 C 83 % 1035,5 hPa 0,0 l/m 0 min 0 min 0 W/m 0,0 km/h (0 Bft) 100,00 %
20.11.2020 17:38 5,9 C 5,0 C 3,4 C 83 % 1035,5 hPa 0,0 l/m 0 min 0 min 0 W/m 0,0 km/h (0 Bft) 97,22 %
20.11.2020 17:40 5,9 C 5,0 C 3,9 C 83 % 1035,5 hPa 0,0 l/m 0 min 0 min 0 W/m 0,0 km/h (0 Bft) 100,00 %
20.11.2020 17:42 5,9 C 5,0 C 3,9 C 83 % 1035,4 hPa 0,0 l/m 0 min 0 min 0 W/m 12,9 km/h (3 Bft) 100,00 %
20.11.2020 17:44 5,9 C 5,0 C 3,9 C 83 % 1035,4 hPa 0,0 l/m 0 min 0 min 0 W/m 12,9 km/h (3 Bft) 100,00 %
20.11.2020 17:46 5,8 C 5,0 C 3,4 C 83 % 1035,4 hPa 0,0 l/m 0 min 0 min 0 W/m 12,9 km/h (3 Bft) 100,00 %
20.11.2020 17:48 5,8 C 5,0 C 3,4 C 83 % 1035,4 hPa 0,0 l/m 0 min 0 min 0 W/m 12,9 km/h (3 Bft) 97,83 %
20.11.2020 17:50 5,7 C 5,0 C 3,4 C 83 % 1035,4 hPa 0,0 l/m 0 min 0 min 0 W/m 6,4 km/h (2 Bft) 98,15 %
20.11.2020 17:52 5,7 C 5,0 C 3,4 C 83 % 1035,4 hPa 0,0 l/m 0 min 0 min 0 W/m 0,0 km/h (0 Bft) 94,87 %
20.11.2020 17:54 5,6 C 5,0 C 3,4 C 83 % 1035,4 hPa 0,0 l/m 0 min 0 min 0 W/m 0,0 km/h (0 Bft) 100,00 %
20.11.2020 17:56 5,6 C 5,0 C 3,4 C 83 % 1035,5 hPa 0,0 l/m 0 min 0 min 0 W/m 0,0 km/h (0 Bft) 97,87 %
20.11.2020 17:58 5,6 C 5,0 C 3,4 C 83 % 1035,4 hPa 0,0 l/m 0 min 0 min 0 W/m 0,0 km/h (0 Bft) 100,00 %
20.11.2020 18:00 5,6 C 5,0 C 3,4 C 83 % 1035,4 hPa 0,0 l/m 0 min 0 min 0 W/m 0,0 km/h (0 Bft) 100,00 %
20.11.2020 18:02 5,5 C 4,4 C 3,4 C 83 % 1035,4 hPa 0,0 l/m 0 min 0 min 0 W/m 3,2 km/h (1 Bft) 98,15 %
20.11.2020 18:04 5,5 C 4,4 C 3,4 C 84 % 1035,4 hPa 0,0 l/m 0 min 0 min 0 W/m 0,0 km/h (0 Bft) 100,00 %
20.11.2020 18:08 5,5 C 4,4 C 3,4 C 84 % 1035,5 hPa 0,0 l/m 0 min 0 min 0 W/m 0,0 km/h (0 Bft) 100,00 %
20.11.2020 18:10 5,5 C 4,4 C 3,4 C 84 % 1035,4 hPa 0,0 l/m 0 min 0 min 0 W/m 0,0 km/h (0 Bft) 100,00 %
20.11.2020 18:12 5,5 C 4,4 C 3,4 C 84 % 1035,4 hPa 0,0 l/m 0 min 0 min 0 W/m 0,0 km/h (0 Bft) 100,00 %
20.11.2020 18:14 5,5 C 4,4 C 3,4 C 84 % 1035,5 hPa 0,0 l/m 0 min 0 min 0 W/m 3,2 km/h (1 Bft) 100,00 %
20.11.2020 18:16 5,4 C 4,4 C 3,4 C 84 % 1035,5 hPa 0,0 l/m 0 min 0 min 0 W/m 0,0 km/h (0 Bft) 100,00 %
20.11.2020 18:18 5,4 C 4,4 C 3,4 C 84 % 1035,5 hPa 0,0 l/m 0 min 0 min 0 W/m 0,0 km/h (0 Bft) 100,00 %
20.11.2020 18:20 5,4 C 4,4 C 2,8 C 84 % 1035,5 hPa 0,0 l/m 0 min 0 min 0 W/m 3,2 km/h (1 Bft) 100,00 %
20.11.2020 18:22 5,4 C 4,4 C 2,8 C 84 % 1035,5 hPa 0,0 l/m 0 min 0 min 0 W/m 3,2 km/h (1 Bft) 97,73 %
20.11.2020 18:24 5,3 C 4,4 C 2,8 C 84 % 1035,5 hPa 0,0 l/m 0 min 0 min 0 W/m 3,2 km/h (1 Bft) 97,96 %
20.11.2020 18:26 5,3 C 4,4 C 2,8 C 84 % 1035,4 hPa 0,0 l/m 0 min 0 min 0 W/m 3,2 km/h (1 Bft) 100,00 %
20.11.2020 18:28 5,3 C 4,4 C 2,8 C 84 % 1035,4 hPa 0,0 l/m 0 min 0 min 0 W/m 3,2 km/h (1 Bft) 100,00 %
20.11.2020 18:30 5,3 C 4,4 C 2,8 C 84 % 1035,5 hPa 0,0 l/m 0 min 0 min 0 W/m 3,2 km/h (1 Bft) 100,00 %
20.11.2020 18:32 5,3 C 4,4 C 2,8 C 85 % 1035,5 hPa 0,0 l/m 0 min 0 min 0 W/m 3,2 km/h (1 Bft) 98,15 %
20.11.2020 18:34 5,2 C 3,9 C 2,8 C 85 % 1035,5 hPa 0,0 l/m 0 min 0 min 0 W/m 3,2 km/h (1 Bft) 100,00 %
20.11.2020 18:36 5,2 C 3,9 C 2,8 C 85 % 1035,4 hPa 0,0 l/m 0 min 0 min 0 W/m 0,0 km/h (0 Bft) 100,00 %
20.11.2020 18:38 5,2 C 3,9 C 2,8 C 85 % 1035,4 hPa 0,0 l/m 0 min 0 min 0 W/m 6,4 km/h (2 Bft) 100,00 %
20.11.2020 18:40 5,1 C 3,9 C 2,8 C 85 % 1035,4 hPa 0,0 l/m 0 min 0 min 0 W/m 6,4 km/h (2 Bft) 100,00 %
20.11.2020 18:42 5,1 C 3,9 C 2,8 C 85 % 1035,4 hPa 0,0 l/m 0 min 0 min 0 W/m 0,0 km/h (0 Bft) 100,00 %
20.11.2020 18:44 5,1 C 3,9 C 2,8 C 85 % 1035,3 hPa 0,0 l/m 0 min 0 min 0 W/m 0,0 km/h (0 Bft) 100,00 %
20.11.2020 18:46 5,0 C 3,9 C 2,8 C 85 % 1035,3 hPa 0,0 l/m 0 min 0 min 0 W/m 3,2 km/h (1 Bft) 100,00 %
20.11.2020 18:48 5,0 C 3,9 C 2,8 C 85 % 1035,4 hPa 0,0 l/m 0 min 0 min 0 W/m 6,4 km/h (2 Bft) 100,00 %
20.11.2020 18:50 5,0 C 3,9 C 2,8 C 85 % 1035,4 hPa 0,0 l/m 0 min 0 min 0 W/m 12,9 km/h (3 Bft) 97,22 %
20.11.2020 18:52 5,0 C 3,9 C 2,8 C 85 % 1035,4 hPa 0,0 l/m 0 min 0 min 0 W/m 6,4 km/h (2 Bft) 91,84 %
20.11.2020 18:54 4,9 C 3,9 C 2,8 C 85 % 1035,4 hPa 0,0 l/m 0 min 0 min 0 W/m 6,4 km/h (2 Bft) 97,87 %
20.11.2020 18:56 4,9 C 3,9 C 2,8 C 85 % 1035,4 hPa 0,0 l/m 0 min 0 min 0 W/m 16,1 km/h (3 Bft) 97,73 %
20.11.2020 18:58 4,9 C 3,9 C 2,8 C 85 % 1035,4 hPa 0,0 l/m 0 min 0 min 0 W/m 6,4 km/h (2 Bft) 97,96 %
20.11.2020 19:00 4,9 C 3,9 C 2,8 C 86 % 1035,4 hPa 0,0 l/m 0 min 0 min 0 W/m 3,2 km/h (1 Bft) 95,74 %
20.11.2020 19:02 4,9 C 3,9 C 2,8 C 86 % 1035,5 hPa 0,0 l/m 0 min 0 min 0 W/m 3,2 km/h (1 Bft) 95,56 %
20.11.2020 19:04 4,8 C 3,9 C 2,8 C 86 % 1035,5 hPa 0,0 l/m 0 min 0 min 0 W/m 6,4 km/h (2 Bft) 95,83 %
20.11.2020 19:06 4,8 C 3,9 C 2,8 C 86 % 1035,6 hPa 0,0 l/m 0 min 0 min 0 W/m 0,0 km/h (0 Bft) 95,83 %
20.11.2020 19:08 4,8 C 3,9 C 2,8 C 86 % 1035,5 hPa 0,0 l/m 0 min 0 min 0 W/m 0,0 km/h (0 Bft) 94,34 %
20.11.2020 19:10 4,8 C 3,9 C 2,8 C 86 % 1035,5 hPa 0,0 l/m 0 min 0 min 0 W/m 12,9 km/h (3 Bft) 95,74 %
20.11.2020 19:12 4,8 C 3,9 C 2,8 C 86 % 1035,5 hPa 0,0 l/m 0 min 0 min 0 W/m 3,2 km/h (1 Bft) 92,11 %
20.11.2020 19:14 4,7 C 3,9 C 2,8 C 86 % 1035,3 hPa 0,0 l/m 0 min 0 min 0 W/m 3,2 km/h (1 Bft) 95,92 %
20.11.2020 19:16 4,7 C 3,9 C 2,8 C 86 % 1035,4 hPa 0,0 l/m 0 min 0 min 0 W/m 0,0 km/h (0 Bft) 95,74 %
20.11.2020 19:18 4,6 C 3,9 C 2,8 C 86 % 1035,3 hPa 0,0 l/m 0 min 0 min 0 W/m 3,2 km/h (1 Bft) 95,74 %
20.11.2020 19:20 4,6 C 3,9 C 2,2 C 86 % 1035,3 hPa 0,0 l/m 0 min 0 min 0 W/m 6,4 km/h (2 Bft) 96,23 %
20.11.2020 19:22 4,6 C 3,3 C 2,2 C 87 % 1035,3 hPa 0,0 l/m 0 min 0 min 0 W/m 3,2 km/h (1 Bft) 92,11 %
20.11.2020 19:24 4,6 C 3,9 C 2,2 C 87 % 1035,2 hPa 0,0 l/m 0 min 0 min 0 W/m 6,4 km/h (2 Bft) 95,74 %
20.11.2020 19:26 4,6 C 3,9 C 2,8 C 87 % 1035,3 hPa 0,0 l/m 0 min 0 min 0 W/m 3,2 km/h (1 Bft) 95,74 %
20.11.2020 19:28 4,5 C 3,9 C 2,8 C 87 % 1035,2 hPa 0,0 l/m 0 min 0 min 0 W/m 6,4 km/h (2 Bft) 93,88 %
20.11.2020 19:30 4,5 C 3,9 C 2,8 C 87 % 1035,2 hPa 0,0 l/m 0 min 0 min 0 W/m 0,0 km/h (0 Bft) 95,74 %
20.11.2020 19:32 4,5 C 3,9 C 2,2 C 87 % 1035,2 hPa 0,0 l/m 0 min 0 min 0 W/m 12,9 km/h (3 Bft) 95,65 %
20.11.2020 19:34 4,5 C 3,9 C 2,2 C 87 % 1035,3 hPa 0,0 l/m 0 min 0 min 0 W/m 6,4 km/h (2 Bft) 96,36 %
20.11.2020 19:36 4,5 C 3,3 C 2,2 C 87 % 1035,2 hPa 0,0 l/m 0 min 0 min 0 W/m 3,2 km/h (1 Bft) 95,74 %
20.11.2020 19:38 4,5 C 3,3 C 2,2 C 87 % 1035,3 hPa 0,0 l/m 0 min 0 min 0 W/m 6,4 km/h (2 Bft) 94,74 %
20.11.2020 19:40 4,4 C 3,3 C 2,2 C 87 % 1035,3 hPa 0,0 l/m 0 min 0 min 0 W/m 3,2 km/h (1 Bft) 95,74 %
20.11.2020 19:42 4,4 C 3,3 C 2,2 C 87 % 1035,4 hPa 0,0 l/m 0 min 0 min 0 W/m 0,0 km/h (0 Bft) 97,87 %
20.11.2020 19:44 4,4 C 3,3 C 2,2 C 87 % 1035,4 hPa 0,0 l/m 0 min 0 min 0 W/m 3,2 km/h (1 Bft) 100,00 %
20.11.2020 19:46 4,4 C 3,3 C 2,2 C 87 % 1035,5 hPa 0,0 l/m 0 min 0 min 0 W/m 6,4 km/h (2 Bft) 100,00 %
20.11.2020 19:48 4,3 C 3,3 C 2,2 C 87 % 1035,5 hPa 0,0 l/m 0 min 0 min 0 W/m 12,9 km/h (3 Bft) 100,00 %
20.11.2020 19:50 4,3 C 3,3 C 2,2 C 87 % 1035,5 hPa 0,0 l/m 0 min 0 min 0 W/m 6,4 km/h (2 Bft) 100,00 %
20.11.2020 19:52 4,3 C 3,3 C 2,2 C 87 % 1035,6 hPa 0,0 l/m 0 min 0 min 0 W/m 12,9 km/h (3 Bft) 100,00 %
20.11.2020 19:54 4,3 C 3,3 C 2,2 C 87 % 1035,6 hPa 0,0 l/m 0 min 0 min 0 W/m 6,4 km/h (2 Bft) 97,83 %
20.11.2020 19:56 4,3 C 3,3 C 2,2 C 87 % 1035,6 hPa 0,0 l/m 0 min 0 min 0 W/m 0,0 km/h (0 Bft) 100,00 %
20.11.2020 19:58 4,2 C 3,3 C 2,2 C 87 % 1035,6 hPa 0,0 l/m 0 min 0 min 0 W/m 6,4 km/h (2 Bft) 100,00 %
20.11.2020 20:00 4,2 C 3,3 C 2,2 C 88 % 1035,6 hPa 0,0 l/m 0 min 0 min 0 W/m 3,2 km/h (1 Bft) 100,00 %
20.11.2020 20:02 4,1 C 3,3 C 2,2 C 88 % 1035,5 hPa 0,0 l/m 0 min 0 min 0 W/m 6,4 km/h (2 Bft) 100,00 %
20.11.2020 20:04 4,1 C 3,3 C 2,2 C 88 % 1035,5 hPa 0,0 l/m 0 min 0 min 0 W/m 3,2 km/h (1 Bft) 100,00 %
20.11.2020 20:06 4,1 C 3,3 C 2,2 C 88 % 1035,4 hPa 0,0 l/m 0 min 0 min 0 W/m 6,4 km/h (2 Bft) 100,00 %
20.11.2020 20:08 4,1 C 3,3 C 2,2 C 88 % 1035,4 hPa 0,0 l/m 0 min 0 min 0 W/m 6,4 km/h (2 Bft) 100,00 %
20.11.2020 20:10 4,1 C 3,3 C 2,2 C 88 % 1035,5 hPa 0,0 l/m 0 min 0 min 0 W/m 3,2 km/h (1 Bft) 100,00 %
20.11.2020 20:12 4,0 C 3,3 C 2,2 C 88 % 1035,6 hPa 0,0 l/m 0 min 0 min 0 W/m 0,0 km/h (0 Bft) 97,92 %
20.11.2020 20:14 4,0 C 3,3 C 2,2 C 88 % 1035,5 hPa 0,0 l/m 0 min 0 min 0 W/m 3,2 km/h (1 Bft) 100,00 %
20.11.2020 20:16 4,0 C 3,3 C 2,2 C 88 % 1035,5 hPa 0,0 l/m 0 min 0 min 0 W/m 3,2 km/h (1 Bft) 97,87 %
20.11.2020 20:18 4,0 C 3,3 C 2,2 C 88 % 1035,5 hPa 0,0 l/m 0 min 0 min 0 W/m 0,0 km/h (0 Bft) 100,00 %
20.11.2020 20:20 4,0 C 3,3 C 2,2 C 88 % 1035,5 hPa 0,0 l/m 0 min 0 min 0 W/m 0,0 km/h (0 Bft) 100,00 %
20.11.2020 20:22 3,9 C 2,8 C 2,2 C 88 % 1035,5 hPa 0,0 l/m 0 min 0 min 0 W/m 0,0 km/h (0 Bft) 100,00 %
20.11.2020 20:24 3,9 C 2,8 C 2,2 C 88 % 1035,5 hPa 0,0 l/m 0 min 0 min 0 W/m 3,2 km/h (1 Bft) 100,00 %
20.11.2020 20:26 3,9 C 2,8 C 1,7 C 88 % 1035,6 hPa 0,0 l/m 0 min 0 min 0 W/m 0,0 km/h (0 Bft) 100,00 %
20.11.2020 20:28 3,9 C 2,8 C 1,7 C 88 % 1035,6 hPa 0,0 l/m 0 min 0 min 0 W/m 3,2 km/h (1 Bft) 100,00 %
20.11.2020 20:30 3,9 C 2,8 C 1,7 C 88 % 1035,6 hPa 0,0 l/m 0 min 0 min 0 W/m 3,2 km/h (1 Bft) 100,00 %
20.11.2020 20:32 3,8 C 2,8 C 1,7 C 88 % 1035,5 hPa 0,0 l/m 0 min 0 min 0 W/m 0,0 km/h (0 Bft) 100,00 %
20.11.2020 20:34 3,8 C 2,8 C 1,7 C 88 % 1035,4 hPa 0,0 l/m 0 min 0 min 0 W/m 3,2 km/h (1 Bft) 100,00 %
20.11.2020 20:36 3,8 C 2,8 C 1,7 C 88 % 1035,5 hPa 0,0 l/m 0 min 0 min 0 W/m 0,0 km/h (0 Bft) 97,96 %
20.11.2020 20:38 3,8 C 2,8 C 1,7 C 88 % 1035,5 hPa 0,0 l/m 0 min 0 min 0 W/m 0,0 km/h (0 Bft) 97,87 %
20.11.2020 20:40 3,7 C 2,8 C 1,7 C 88 % 1035,5 hPa 0,0 l/m 0 min 0 min 0 W/m 0,0 km/h (0 Bft) 98,08 %
20.11.2020 20:42 3,7 C 2,8 C 1,7 C 88 % 1035,5 hPa 0,0 l/m 0 min 0 min 0 W/m 12,9 km/h (3 Bft) 78,72 %
20.11.2020 20:44 3,7 C 2,8 C 1,7 C 88 % 1035,6 hPa 0,0 l/m 0 min 0 min 0 W/m 3,2 km/h (1 Bft) 72,09 %
20.11.2020 20:46 3,7 C 2,8 C 1,7 C 88 % 1035,6 hPa 0,0 l/m 0 min 0 min 0 W/m 0,0 km/h (0 Bft) 100,00 %
20.11.2020 20:48 3,6 C 2,8 C 1,7 C 89 % 1035,5 hPa 0,0 l/m 0 min 0 min 0 W/m 12,9 km/h (3 Bft) 97,87 %
20.11.2020 20:50 3,6 C 2,8 C 1,7 C 89 % 1035,5 hPa 0,0 l/m 0 min 0 min 0 W/m 3,2 km/h (1 Bft) 97,92 %
20.11.2020 20:52 3,6 C 2,8 C 2,2 C 89 % 1035,4 hPa 0,0 l/m 0 min 0 min 0 W/m 12,9 km/h (3 Bft) 96,30 %
20.11.2020 20:54 3,6 C 2,8 C 1,7 C 89 % 1035,4 hPa 0,0 l/m 0 min 0 min 0 W/m 6,4 km/h (2 Bft) 97,87 %
20.11.2020 20:56 3,6 C 2,8 C 1,7 C 89 % 1035,4 hPa 0,0 l/m 0 min 0 min 0 W/m 12,9 km/h (3 Bft) 97,92 %
20.11.2020 20:58 3,6 C 2,8 C 2,2 C 89 % 1035,3 hPa 0,0 l/m 0 min 0 min 0 W/m 16,1 km/h (3 Bft) 97,87 %
20.11.2020 21:00 3,6 C 2,8 C 1,7 C 89 % 1035,3 hPa 0,0 l/m 0 min 0 min 0 W/m 6,4 km/h (2 Bft) 97,96 %
20.11.2020 21:02 3,6 C 2,8 C 1,7 C 89 % 1035,3 hPa 0,0 l/m 0 min 0 min 0 W/m 6,4 km/h (2 Bft) 97,92 %
20.11.2020 21:04 3,6 C 2,8 C 1,7 C 89 % 1035,3 hPa 0,0 l/m 0 min 0 min 0 W/m 6,4 km/h (2 Bft) 97,67 %
20.11.2020 21:06 3,5 C 2,8 C 1,7 C 89 % 1035,4 hPa 0,0 l/m 0 min 0 min 0 W/m 6,4 km/h (2 Bft) 97,22 %
20.11.2020 21:08 3,5 C 2,8 C 1,7 C 89 % 1035,4 hPa 0,0 l/m 0 min 0 min 0 W/m 6,4 km/h (2 Bft) 97,92 %
20.11.2020 21:10 3,5 C 2,8 C 1,7 C 89 % 1035,4 hPa 0,0 l/m 0 min 0 min 0 W/m 3,2 km/h (1 Bft) 94,34 %
20.11.2020 21:12 3,5 C 2,8 C 1,7 C 89 % 1035,4 hPa 0,0 l/m 0 min 0 min 0 W/m 3,2 km/h (1 Bft) 98,11 %
20.11.2020 21:14 3,5 C 2,8 C 1,7 C 89 % 1035,4 hPa 0,0 l/m 0 min 0 min 0 W/m 3,2 km/h (1 Bft) 97,22 %
20.11.2020 21:16 3,5 C 2,8 C 1,7 C 89 % 1035,5 hPa 0,0 l/m 0 min 0 min 0 W/m 3,2 km/h (1 Bft) 98,11 %
20.11.2020 21:18 3,5 C 2,8 C 1,7 C 89 % 1035,5 hPa 0,0 l/m 0 min 0 min 0 W/m 6,4 km/h (2 Bft) 95,74 %
20.11.2020 21:20 3,4 C 2,8 C 1,7 C 89 % 1035,5 hPa 0,0 l/m 0 min 0 min 0 W/m 6,4 km/h (2 Bft) 93,75 %
20.11.2020 21:22 3,4 C 2,8 C 1,7 C 89 % 1035,6 hPa 0,0 l/m 0 min 0 min 0 W/m 6,4 km/h (2 Bft) 95,12 %
20.11.2020 21:24 3,4 C 2,8 C 1,7 C 89 % 1035,5 hPa 0,0 l/m 0 min 0 min 0 W/m 3,2 km/h (1 Bft) 95,83 %
20.11.2020 21:26 3,4 C 2,8 C 1,7 C 89 % 1035,6 hPa 0,0 l/m 0 min 0 min 0 W/m 3,2 km/h (1 Bft) 95,65 %
20.11.2020 21:28 3,4 C 2,8 C 1,7 C 89 % 1035,6 hPa 0,0 l/m 0 min 0 min 0 W/m 6,4 km/h (2 Bft) 95,83 %
20.11.2020 21:30 3,4 C 2,8 C 1,7 C 89 % 1035,6 hPa 0,0 l/m 0 min 0 min 0 W/m 6,4 km/h (2 Bft) 95,74 %
20.11.2020 21:32 3,4 C 2,8 C 1,7 C 89 % 1035,5 hPa 0,0 l/m 0 min 0 min 0 W/m 12,9 km/h (3 Bft) 93,62 %
20.11.2020 21:34 3,4 C 2,8 C 1,7 C 89 % 1035,4 hPa 0,0 l/m 0 min 0 min 0 W/m 6,4 km/h (2 Bft) 95,74 %
20.11.2020 21:36 3,3 C 2,8 C 1,7 C 89 % 1035,4 hPa 0,0 l/m 0 min 0 min 0 W/m 6,4 km/h (2 Bft) 95,74 %
20.11.2020 21:38 3,3 C 2,8 C 1,7 C 89 % 1035,3 hPa 0,0 l/m 0 min 0 min 0 W/m 3,2 km/h (1 Bft) 91,49 %
20.11.2020 21:40 3,3 C 2,8 C 1,7 C 89 % 1035,4 hPa 0,0 l/m 0 min 0 min 0 W/m 6,4 km/h (2 Bft) 95,65 %
20.11.2020 21:42 3,3 C 2,8 C 1,7 C 89 % 1035,4 hPa 0,0 l/m 0 min 0 min 0 W/m 6,4 km/h (2 Bft) 93,62 %
20.11.2020 21:44 3,3 C 2,2 C 1,7 C 89 % 1035,4 hPa 0,0 l/m 0 min 0 min 0 W/m 3,2 km/h (1 Bft) 95,74 %
20.11.2020 21:46 3,3 C 2,8 C 1,7 C 89 % 1035,5 hPa 0,0 l/m 0 min 0 min 0 W/m 0,0 km/h (0 Bft) 95,74 %
20.11.2020 21:48 3,3 C 2,8 C 1,7 C 89 % 1035,5 hPa 0,0 l/m 0 min 0 min 0 W/m 3,2 km/h (1 Bft) 95,74 %
20.11.2020 21:50 3,2 C 2,8 C 1,7 C 89 % 1035,5 hPa 0,0 l/m 0 min 0 min 0 W/m 12,9 km/h (3 Bft) 97,87 %
20.11.2020 21:52 3,2 C 2,8 C 1,7 C 89 % 1035,5 hPa 0,0 l/m 0 min 0 min 0 W/m 3,2 km/h (1 Bft) 95,24 %
20.11.2020 21:54 3,2 C 2,8 C 1,7 C 89 % 1035,5 hPa 0,0 l/m 0 min 0 min 0 W/m 3,2 km/h (1 Bft) 95,74 %
20.11.2020 21:56 3,1 C 2,8 C 1,7 C 89 % 1035,5 hPa 0,0 l/m 0 min 0 min 0 W/m 6,4 km/h (2 Bft) 95,74 %
20.11.2020 21:58 3,1 C 2,8 C 1,7 C 89 % 1035,6 hPa 0,0 l/m 0 min 0 min 0 W/m 3,2 km/h (1 Bft) 97,87 %
20.11.2020 22:00 3,1 C 2,8 C 1,7 C 89 % 1035,6 hPa 0,0 l/m 0 min 0 min 0 W/m 6,4 km/h (2 Bft) 95,74 %
20.11.2020 22:02 3,1 C 2,2 C 1,7 C 89 % 1035,5 hPa 0,0 l/m 0 min 0 min 0 W/m 12,9 km/h (3 Bft) 97,83 %
20.11.2020 22:04 3,1 C 2,2 C 1,7 C 89 % 1035,5 hPa 0,0 l/m 0 min 0 min 0 W/m 6,4 km/h (2 Bft) 95,74 %
20.11.2020 22:06 3,1 C 2,2 C 1,7 C 89 % 1035,5 hPa 0,0 l/m 0 min 0 min 0 W/m 6,4 km/h (2 Bft) 97,87 %
20.11.2020 22:08 3,1 C 2,2 C 1,7 C 89 % 1035,4 hPa 0,0 l/m 0 min 0 min 0 W/m 12,9 km/h (3 Bft) 97,87 %
20.11.2020 22:10 3,1 C 2,2 C 1,7 C 89 % 1035,3 hPa 0,0 l/m 0 min 0 min 0 W/m 12,9 km/h (3 Bft) 93,62 %
20.11.2020 22:12 3,0 C 2,2 C 1,7 C 89 % 1035,3 hPa 0,0 l/m 0 min 0 min 0 W/m 6,4 km/h (2 Bft) 97,87 %
20.11.2020 22:14 3,0 C 2,2 C 1,1 C 89 % 1035,2 hPa 0,0 l/m 0 min 0 min 0 W/m 3,2 km/h (1 Bft) 98,28 %
20.11.2020 22:16 3,0 C 2,2 C 1,1 C 89 % 1035,2 hPa 0,0 l/m 0 min 0 min 0 W/m 3,2 km/h (1 Bft) 95,74 %
20.11.2020 22:18 3,0 C 2,2 C 1,1 C 89 % 1035,2 hPa 0,0 l/m 0 min 0 min 0 W/m 12,9 km/h (3 Bft) 93,62 %
20.11.2020 22:20 3,0 C 2,2 C 1,1 C 89 % 1035,3 hPa 0,0 l/m 0 min 0 min 0 W/m 12,9 km/h (3 Bft) 95,74 %
20.11.2020 22:22 3,0 C 2,2 C 1,7 C 89 % 1035,3 hPa 0,0 l/m 0 min 0 min 0 W/m 16,1 km/h (3 Bft) 97,83 %
20.11.2020 22:24 3,0 C 2,2 C 1,1 C 89 % 1035,3 hPa 0,0 l/m 0 min 0 min 0 W/m 6,4 km/h (2 Bft) 97,87 %
20.11.2020 22:26 2,9 C 2,2 C 1,1 C 89 % 1035,2 hPa 0,0 l/m 0 min 0 min 0 W/m 12,9 km/h (3 Bft) 97,87 %
20.11.2020 22:28 2,9 C 2,2 C 1,1 C 89 % 1035,3 hPa 0,0 l/m 0 min 0 min 0 W/m 3,2 km/h (1 Bft) 97,87 %
20.11.2020 22:30 2,9 C 2,2 C 1,1 C 89 % 1035,2 hPa 0,0 l/m 0 min 0 min 0 W/m 12,9 km/h (3 Bft) 100,00 %
20.11.2020 22:32 2,9 C 2,2 C 1,1 C 89 % 1035,2 hPa 0,0 l/m 0 min 0 min 0 W/m 12,9 km/h (3 Bft) 97,87 %
20.11.2020 22:34 2,9 C 2,2 C 1,1 C 89 % 1035,2 hPa 0,0 l/m 0 min 0 min 0 W/m 16,1 km/h (3 Bft) 97,83 %
20.11.2020 22:36 2,9 C 2,2 C 1,1 C 89 % 1035,2 hPa 0,0 l/m 0 min 0 min 0 W/m 3,2 km/h (1 Bft) 95,74 %
20.11.2020 22:38 2,9 C 2,2 C 1,1 C 89 % 1035,2 hPa 0,0 l/m 0 min 0 min 0 W/m 12,9 km/h (3 Bft) 97,87 %
20.11.2020 22:40 2,8 C 2,2 C 1,1 C 89 % 1035,0 hPa 0,0 l/m 0 min 0 min 0 W/m 12,9 km/h (3 Bft) 97,87 %
20.11.2020 22:42 2,8 C 2,2 C 1,1 C 89 % 1035,0 hPa 0,0 l/m 0 min 0 min 0 W/m 6,4 km/h (2 Bft) 97,87 %
20.11.2020 22:44 2,8 C 2,2 C 1,1 C 89 % 1035,0 hPa 0,0 l/m 0 min 0 min 0 W/m 6,4 km/h (2 Bft) 100,00 %
20.11.2020 22:46 2,8 C 2,2 C 1,1 C 89 % 1035,0 hPa 0,0 l/m 0 min 0 min 0 W/m 6,4 km/h (2 Bft) 97,83 %
20.11.2020 22:48 2,8 C 2,2 C 1,1 C 89 % 1035,0 hPa 0,0 l/m 0 min 0 min 0 W/m 12,9 km/h (3 Bft) 100,00 %
20.11.2020 22:50 2,7 C 2,2 C 1,1 C 89 % 1035,0 hPa 0,0 l/m 0 min 0 min 0 W/m 16,1 km/h (3 Bft) 100,00 %
20.11.2020 22:52 2,7 C 2,2 C 1,1 C 89 % 1034,9 hPa 0,0 l/m 0 min 0 min 0 W/m 12,9 km/h (3 Bft) 97,87 %
20.11.2020 22:54 2,6 C 1,7 C 1,1 C 89 % 1034,8 hPa 0,0 l/m 0 min 0 min 0 W/m 6,4 km/h (2 Bft) 100,00 %
20.11.2020 22:56 2,6 C 1,7 C 1,1 C 89 % 1034,9 hPa 0,0 l/m 0 min 0 min 0 W/m 6,4 km/h (2 Bft) 100,00 %
20.11.2020 22:58 2,6 C 1,7 C 1,1 C 89 % 1034,9 hPa 0,0 l/m 0 min 0 min 0 W/m 12,9 km/h (3 Bft) 100,00 %
20.11.2020 23:00 2,6 C 1,7 C 1,1 C 89 % 1035,0 hPa 0,0 l/m 0 min 0 min 0 W/m 12,9 km/h (3 Bft) 100,00 %
20.11.2020 23:02 2,6 C 1,7 C 1,1 C 89 % 1035,1 hPa 0,0 l/m 0 min 0 min 0 W/m 12,9 km/h (3 Bft) 100,00 %
20.11.2020 23:04 2,6 C 1,7 C 1,1 C 89 % 1035,2 hPa 0,0 l/m 0 min 0 min 0 W/m 6,4 km/h (2 Bft) 100,00 %
20.11.2020 23:06 2,5 C 2,2 C 1,1 C 89 % 1035,3 hPa 0,0 l/m 0 min 0 min 0 W/m 12,9 km/h (3 Bft) 100,00 %
20.11.2020 23:08 2,5 C 2,2 C 1,1 C 89 % 1035,2 hPa 0,0 l/m 0 min 0 min 0 W/m 12,9 km/h (3 Bft) 100,00 %
20.11.2020 23:10 2,5 C 2,2 C 1,1 C 89 % 1035,3 hPa 0,0 l/m 0 min 0 min 0 W/m 12,9 km/h (3 Bft) 100,00 %
20.11.2020 23:12 2,5 C 2,2 C 1,1 C 89 % 1035,3 hPa 0,0 l/m 0 min 0 min 0 W/m 6,4 km/h (2 Bft) 100,00 %
20.11.2020 23:14 2,5 C 2,2 C 1,1 C 89 % 1035,4 hPa 0,0 l/m 0 min 0 min 0 W/m 12,9 km/h (3 Bft) 100,00 %
20.11.2020 23:16 2,5 C 2,2 C 1,1 C 89 % 1035,4 hPa 0,0 l/m 0 min 0 min 0 W/m 12,9 km/h (3 Bft) 100,00 %
20.11.2020 23:18 2,5 C 2,2 C 1,1 C 89 % 1035,4 hPa 0,0 l/m 0 min 0 min 0 W/m 12,9 km/h (3 Bft) 97,87 %
20.11.2020 23:20 2,5 C 2,2 C 1,1 C 89 % 1035,3 hPa 0,0 l/m 0 min 0 min 0 W/m 12,9 km/h (3 Bft) 100,00 %
20.11.2020 23:22 2,5 C 2,2 C 1,1 C 89 % 1035,4 hPa 0,0 l/m 0 min 0 min 0 W/m 6,4 km/h (2 Bft) 100,00 %
20.11.2020 23:24 2,5 C 2,2 C 1,1 C 89 % 1035,4 hPa 0,0 l/m 0 min 0 min 0 W/m 6,4 km/h (2 Bft) 100,00 %
20.11.2020 23:26 2,5 C 2,2 C 1,1 C 89 % 1035,3 hPa 0,0 l/m 0 min 0 min 0 W/m 12,9 km/h (3 Bft) 100,00 %
20.11.2020 23:28 2,5 C 2,2 C 1,1 C 89 % 1035,2 hPa 0,0 l/m 0 min 0 min 0 W/m 16,1 km/h (3 Bft) 97,87 %
20.11.2020 23:30 2,5 C 2,2 C 1,1 C 89 % 1035,2 hPa 0,0 l/m 0 min 0 min 0 W/m 12,9 km/h (3 Bft) 97,87 %
20.11.2020 23:32 2,5 C 2,2 C 1,1 C 89 % 1035,2 hPa 0,0 l/m 0 min 0 min 0 W/m 12,9 km/h (3 Bft) 100,00 %
20.11.2020 23:34 2,5 C 2,2 C 1,1 C 89 % 1035,1 hPa 0,0 l/m 0 min 0 min 0 W/m 16,1 km/h (3 Bft) 97,96 %
20.11.2020 23:36 2,5 C 1,7 C 1,1 C 89 % 1035,0 hPa 0,0 l/m 0 min 0 min 0 W/m 12,9 km/h (3 Bft) 97,96 %
20.11.2020 23:38 2,5 C 1,7 C 1,1 C 89 % 1034,9 hPa 0,0 l/m 0 min 0 min 0 W/m 3,2 km/h (1 Bft) 97,83 %
20.11.2020 23:40 2,5 C 1,7 C 1,1 C 89 % 1034,8 hPa 0,0 l/m 0 min 0 min 0 W/m 3,2 km/h (1 Bft) 97,87 %
20.11.2020 23:42 2,5 C 1,7 C 1,1 C 89 % 1034,9 hPa 0,0 l/m 0 min 0 min 0 W/m 6,4 km/h (2 Bft) 97,87 %
20.11.2020 23:44 2,4 C 1,7 C 1,1 C 89 % 1034,8 hPa 0,0 l/m 0 min 0 min 0 W/m 16,1 km/h (3 Bft) 97,87 %
20.11.2020 23:46 2,4 C 1,7 C 1,1 C 89 % 1034,8 hPa 0,0 l/m 0 min 0 min 0 W/m 12,9 km/h (3 Bft) 97,87 %
20.11.2020 23:48 2,4 C 1,7 C 1,1 C 89 % 1034,8 hPa 0,0 l/m 0 min 0 min 0 W/m 6,4 km/h (2 Bft) 97,83 %
20.11.2020 23:50 2,4 C 1,7 C 1,1 C 89 % 1034,8 hPa 0,0 l/m 0 min 0 min 0 W/m 12,9 km/h (3 Bft) 97,87 %
20.11.2020 23:52 2,4 C 1,7 C 1,1 C 89 % 1034,8 hPa 0,0 l/m 0 min 0 min 0 W/m 12,9 km/h (3 Bft) 95,74 %
20.11.2020 23:54 2,4 C 1,7 C 1,1 C 89 % 1034,9 hPa 0,0 l/m 0 min 0 min 0 W/m 16,1 km/h (3 Bft) 97,87 %
20.11.2020 23:56 2,4 C 1,7 C 1,1 C 89 % 1034,9 hPa 0,0 l/m 0 min 0 min 0 W/m 16,1 km/h (3 Bft) 95,74 %
20.11.2020 23:58 2,4 C 1,7 C 1,1 C 89 % 1034,9 hPa 0,0 l/m 0 min 0 min 0 W/m 16,1 km/h (3 Bft) 97,87 %
_ Min-Zeit 23:44 22:54 22:14 14:16 00:00 - - - - 00:02 16:28
Minimum _ 2,4 C 1,7 C 1,1 C 76 % 1032,2 hPa - - - - 0,0 km/h (0 Bft) 22,50 %
_ Max-Zeit 14:08 13:22 13:24 07:24 11:26 00:00 12:52 00:00 13:08 14:26 00:04
Maximum _ 9,0 C 13,9 C 13,4 C 96 % 1035,8 hPa 0,0 l/m 2 min 0 min 377 W/m 25,7 km/h
S-SO (4 Bft)
100,00 %
Durchschnitt _ 5,2 C 5,0 C 4,2 C 89 % 1034,4 hPa #0,0 l/m #3:02 h #0 min. 120 W/m 5,7 km/h (1 Bft) 96,95 %
© 2020 W. Hausmann